Observation data for Crowell on 07/11/2018      Previous  Date       Current Mesonet Observations  Soil Data  Daily Summary Page  Observations in Plain Language
KCR1 110500Z 10007KT 26/20 A3008 RMK A01 T02570202  RH  072%=      5-min Rain = 0
KCR1 110501Z 11008KT 26/20 A3008 RMK A01 T02570202  RH  072%=      5-min Rain = 0
KCR1 110502Z 11007KT 26/20 A3008 RMK A01 T02570202  RH  072%=      5-min Rain = 0
KCR1 110503Z 11008KT 26/20 A3008 RMK A01 T02570202  RH  072%=      5-min Rain = 0
KCR1 110504Z 11008KT 26/20 A3008 RMK A01 T02570202  RH  072%=      5-min Rain = 0
KCR1 110505Z 11007KT 26/20 A3008 RMK A01 T02570202  RH  072%=      5-min Rain = 0
KCR1 110506Z 12007KT 26/20 A3008 RMK A01 T02560202  RH  072%=      5-min Rain = 0
KCR1 110507Z 12007KT 26/20 A3008 RMK A01 T02560202  RH  072%=      5-min Rain = 0
KCR1 110508Z 12006KT 26/20 A3008 RMK A01 T02550202  RH  072%=      5-min Rain = 0
KCR1 110509Z 12006KT 26/20 A3008 RMK A01 T02550202  RH  072%=      5-min Rain = 0
KCR1 110510Z 12006KT 25/20 A3008 RMK A01 T02540202  RH  073%=      5-min Rain = 0
KCR1 110511Z 12005KT 26/20 A3008 RMK A01 T02550202  RH  073%=      5-min Rain = 0
KCR1 110512Z 12006KT 25/20 A3008 RMK A01 T02540202  RH  073%=      5-min Rain = 0
KCR1 110513Z 12006KT 25/20 A3008 RMK A01 T02540202  RH  073%=      5-min Rain = 0
KCR1 110514Z 12005KT 25/20 A3008 RMK A01 T02540202  RH  073%=      5-min Rain = 0
KCR1 110515Z 12006KT 25/20 A3008 RMK A01 T02540203  RH  073%=      5-min Rain = 0
KCR1 110516Z 12006KT 25/20 A3008 RMK A01 T02540203  RH  073%=      5-min Rain = 0
KCR1 110517Z 12006KT 25/20 A3008 RMK A01 T02540203  RH  073%=      5-min Rain = 0
KCR1 110518Z 12005KT 25/20 A3008 RMK A01 T02540203  RH  073%=      5-min Rain = 0
KCR1 110519Z 13005KT 25/20 A3008 RMK A01 T02540203  RH  074%=      5-min Rain = 0
KCR1 110520Z 13005KT 25/20 A3008 RMK A01 T02530203  RH  074%=      5-min Rain = 0
KCR1 110521Z 13005KT 25/20 A3008 RMK A01 T02530204  RH  074%=      5-min Rain = 0
KCR1 110522Z 13004KT 25/20 A3008 RMK A01 T02530204  RH  074%=      5-min Rain = 0
KCR1 110523Z 13004KT 25/20 A3008 RMK A01 T02530204  RH  074%=      5-min Rain = 0
KCR1 110524Z 13005KT 25/20 A3008 RMK A01 T02520204  RH  075%=      5-min Rain = 0
KCR1 110525Z 13004KT 25/20 A3008 RMK A01 T02520204  RH  075%=      5-min Rain = 0
KCR1 110526Z 13004KT 25/20 A3008 RMK A01 T02520204  RH  075%=      5-min Rain = 0
KCR1 110527Z 13004KT 25/20 A3008 RMK A01 T02520204  RH  075%=      5-min Rain = 0
KCR1 110528Z 13005KT 25/20 A3008 RMK A01 T02510204  RH  075%=      5-min Rain = 0
KCR1 110529Z 13004KT 25/20 A3008 RMK A01 T02510204  RH  075%=      5-min Rain = 0
KCR1 110530Z 13005KT 25/21 A3008 RMK A01 T02510205  RH  075%=      5-min Rain = 0
KCR1 110531Z 14003KT 25/21 A3008 RMK A01 T02510205  RH  075%=      5-min Rain = 0
KCR1 110532Z 13004KT 25/21 A3008 RMK A01 T02510205  RH  075%=      5-min Rain = 0
KCR1 110533Z 13004KT 25/21 A3008 RMK A01 T02510205  RH  076%=      5-min Rain = 0
KCR1 110534Z 13005KT 25/21 A3008 RMK A01 T02510205  RH  076%=      5-min Rain = 0
KCR1 110535Z 14004KT 25/21 A3008 RMK A01 T02510205  RH  076%=      5-min Rain = 0
KCR1 110536Z 14004KT 25/21 A3008 RMK A01 T02500206  RH  076%=      5-min Rain = 0
KCR1 110537Z 14004KT 25/21 A3008 RMK A01 T02500206  RH  076%=      5-min Rain = 0
KCR1 110538Z 14003KT 25/21 A3008 RMK A01 T02490205  RH  076%=      5-min Rain = 0
KCR1 110539Z 14004KT 25/21 A3008 RMK A01 T02490205  RH  077%=      5-min Rain = 0
KCR1 110540Z 14003KT 25/21 A3008 RMK A01 T02490205  RH  077%=      5-min Rain = 0
KCR1 110541Z 14003KT 25/21 A3008 RMK A01 T02490205  RH  077%=      5-min Rain = 0
KCR1 110542Z 15003KT 25/21 A3008 RMK A01 T02480205  RH  077%=      5-min Rain = 0
KCR1 110543Z 14003KT 25/21 A3008 RMK A01 T02480205  RH  077%=      5-min Rain = 0
KCR1 110544Z 14003KT 25/21 A3008 RMK A01 T02470205  RH  077%=      5-min Rain = 0
KCR1 110545Z 14003KT 25/21 A3008 RMK A01 T02470205  RH  077%=      5-min Rain = 0
KCR1 110546Z 14003KT 25/21 A3008 RMK A01 T02470205  RH  077%=      5-min Rain = 0
KCR1 110547Z 14003KT 25/21 A3008 RMK A01 T02470205  RH  078%=      5-min Rain = 0
KCR1 110548Z 14003KT 25/21 A3008 RMK A01 T02460205  RH  078%=      5-min Rain = 0
KCR1 110549Z 14003KT 25/21 A3008 RMK A01 T02460205  RH  078%=      5-min Rain = 0
KCR1 110550Z 13002KT 25/21 A3008 RMK A01 T02460205  RH  078%=      5-min Rain = 0
KCR1 110551Z 13002KT 25/21 A3008 RMK A01 T02460205  RH  078%=      5-min Rain = 0
KCR1 110552Z 13002KT 25/20 A3008 RMK A01 T02450204  RH  078%=      5-min Rain = 0
KCR1 110553Z 13002KT 25/21 A3008 RMK A01 T02450205  RH  078%=      5-min Rain = 0
KCR1 110554Z 13002KT 25/21 A3008 RMK A01 T02450205  RH  078%=      5-min Rain = 0
KCR1 110555Z 13002KT 25/21 A3008 RMK A01 T02450205  RH  078%=      5-min Rain = 0
KCR1 110556Z 14002KT 25/21 A3008 RMK A01 T02450205  RH  078%=      5-min Rain = 0
KCR1 110557Z 14002KT 25/21 A3008 RMK A01 T02450205  RH  078%=      5-min Rain = 0
KCR1 110558Z 14002KT 25/21 A3008 RMK A01 T02450205  RH  078%=      5-min Rain = 0
KCR1 110559Z 14002KT 25/21 A3008 RMK A01 T02460205  RH  078%=      5-min Rain = 0
KCR1 110600Z 14002KT 25/21 A3008 RMK A01 T02450205  RH  078%=      5-min Rain = 0
KCR1 110601Z 14002KT 25/21 A3008 RMK A01 T02450205  RH  078%=      5-min Rain = 0
KCR1 110602Z 14002KT 25/21 A3008 RMK A01 T02450205  RH  078%=      5-min Rain = 0
KCR1 110603Z 14003KT 25/21 A3008 RMK A01 T02450205  RH  078%=      5-min Rain = 0
KCR1 110604Z 15003KT 25/21 A3008 RMK A01 T02450205  RH  078%=      5-min Rain = 0
KCR1 110605Z 14003KT 25/21 A3007 RMK A01 T02450205  RH  078%=      5-min Rain = 0
KCR1 110606Z 15003KT 25/21 A3007 RMK A01 T02450205  RH  078%=      5-min Rain = 0
KCR1 110607Z 15003KT 24/20 A3007 RMK A01 T02440204  RH  078%=      5-min Rain = 0
KCR1 110608Z 14003KT 24/21 A3007 RMK A01 T02440205  RH  079%=      5-min Rain = 0
KCR1 110609Z 14003KT 24/20 A3007 RMK A01 T02440204  RH  079%=      5-min Rain = 0
KCR1 110610Z 15003KT 24/21 A3007 RMK A01 T02440205  RH  079%=      5-min Rain = 0
KCR1 110611Z 15003KT 24/21 A3007 RMK A01 T02440205  RH  079%=      5-min Rain = 0
KCR1 110612Z 15003KT 24/20 A3007 RMK A01 T02430204  RH  079%=      5-min Rain = 0
KCR1 110613Z 15003KT 24/20 A3007 RMK A01 T02430204  RH  079%=      5-min Rain = 0
KCR1 110614Z 15003KT 24/20 A3007 RMK A01 T02430204  RH  079%=      5-min Rain = 0
KCR1 110615Z 15003KT 24/20 A3007 RMK A01 T02430204  RH  079%=      5-min Rain = 0
KCR1 110616Z 16003KT 24/20 A3007 RMK A01 T02420204  RH  079%=      5-min Rain = 0
KCR1 110617Z 16003KT 24/20 A3007 RMK A01 T02420204  RH  079%=      5-min Rain = 0
KCR1 110618Z 16003KT 24/20 A3007 RMK A01 T02420204  RH  079%=      5-min Rain = 0
KCR1 110619Z 17003KT 24/20 A3007 RMK A01 T02420204  RH  079%=      5-min Rain = 0
KCR1 110620Z 17004KT 24/20 A3007 RMK A01 T02420203  RH  079%=      5-min Rain = 0
KCR1 110621Z 17004KT 24/20 A3007 RMK A01 T02420203  RH  079%=      5-min Rain = 0
KCR1 110622Z 17004KT 24/20 A3007 RMK A01 T02420203  RH  079%=      5-min Rain = 0
KCR1 110623Z 17004KT 24/20 A3006 RMK A01 T02420203  RH  079%=      5-min Rain = 0
KCR1 110624Z 18004KT 24/20 A3006 RMK A01 T02420204  RH  079%=      5-min Rain = 0
KCR1 110625Z 17004KT 24/20 A3006 RMK A01 T02420204  RH  079%=      5-min Rain = 0
KCR1 110626Z 18004KT 24/20 A3006 RMK A01 T02420204  RH  079%=      5-min Rain = 0
KCR1 110627Z 19004KT 24/20 A3006 RMK A01 T02430204  RH  079%=      5-min Rain = 0
KCR1 110628Z 19004KT 24/20 A3006 RMK A01 T02430204  RH  079%=      5-min Rain = 0
KCR1 110629Z 19004KT 24/20 A3006 RMK A01 T02430204  RH  079%=      5-min Rain = 0
KCR1 110630Z 19004KT 24/20 A3006 RMK A01 T02430204  RH  079%=      5-min Rain = 0
KCR1 110631Z 19004KT 24/20 A3006 RMK A01 T02430204  RH  079%=      5-min Rain = 0
KCR1 110632Z 19004KT 24/20 A3006 RMK A01 T02430204  RH  079%=      5-min Rain = 0
KCR1 110633Z 19004KT 24/20 A3006 RMK A01 T02430204  RH  078%=      5-min Rain = 0
KCR1 110634Z 19004KT 24/20 A3006 RMK A01 T02440204  RH  078%=      5-min Rain = 0
KCR1 110635Z 18004KT 24/20 A3006 RMK A01 T02440204  RH  079%=      5-min Rain = 0
KCR1 110636Z 19004KT 24/20 A3006 RMK A01 T02440204  RH  079%=      5-min Rain = 0
KCR1 110637Z 19004KT 24/20 A3006 RMK A01 T02440204  RH  079%=      5-min Rain = 0
KCR1 110638Z 19004KT 24/21 A3006 RMK A01 T02440205  RH  079%=      5-min Rain = 0
KCR1 110639Z 19004KT 24/21 A3006 RMK A01 T02440205  RH  079%=      5-min Rain = 0
KCR1 110640Z 19004KT 24/21 A3006 RMK A01 T02440205  RH  079%=      5-min Rain = 0
KCR1 110641Z 19004KT 24/20 A3006 RMK A01 T02430204  RH  079%=      5-min Rain = 0
KCR1 110642Z 19004KT 24/20 A3006 RMK A01 T02430204  RH  079%=      5-min Rain = 0
KCR1 110643Z 19004KT 24/21 A3006 RMK A01 T02430205  RH  079%=      5-min Rain = 0
KCR1 110644Z 19004KT 24/20 A3006 RMK A01 T02430204  RH  079%=      5-min Rain = 0
KCR1 110645Z 19004KT 24/20 A3006 RMK A01 T02430204  RH  079%=      5-min Rain = 0
KCR1 110646Z 19004KT 24/20 A3006 RMK A01 T02420204  RH  079%=      5-min Rain = 0
KCR1 110647Z 19004KT 24/20 A3006 RMK A01 T02420204  RH  079%=      5-min Rain = 0
KCR1 110648Z 19004KT 24/20 A3006 RMK A01 T02420204  RH  079%=      5-min Rain = 0
KCR1 110649Z 19004KT 24/20 A3006 RMK A01 T02420204  RH  079%=      5-min Rain = 0
KCR1 110650Z 19004KT 24/20 A3006 RMK A01 T02420204  RH  079%=      5-min Rain = 0
KCR1 110651Z 19004KT 24/20 A3006 RMK A01 T02410203  RH  079%=      5-min Rain = 0
KCR1 110652Z 19004KT 24/20 A3006 RMK A01 T02410203  RH  079%=      5-min Rain = 0
KCR1 110653Z 19004KT 24/20 A3006 RMK A01 T02410204  RH  079%=      5-min Rain = 0
KCR1 110654Z 19003KT 24/20 A3006 RMK A01 T02410204  RH  079%=      5-min Rain = 0
KCR1 110655Z 20003KT 24/20 A3006 RMK A01 T02410203  RH  079%=      5-min Rain = 0
KCR1 110656Z 19003KT 24/20 A3006 RMK A01 T02410203  RH  079%=      5-min Rain = 0
KCR1 110657Z 19004KT 24/20 A3006 RMK A01 T02410203  RH  079%=      5-min Rain = 0
KCR1 110658Z 19004KT 24/20 A3006 RMK A01 T02410203  RH  079%=      5-min Rain = 0
KCR1 110659Z 19004KT 24/20 A3006 RMK A01 T02410203  RH  079%=      5-min Rain = 0
KCR1 110700Z 19004KT 24/20 A3006 RMK A01 T02400202  RH  079%=      5-min Rain = 0
KCR1 110701Z 19005KT 24/20 A3006 RMK A01 T02410203  RH  079%=      5-min Rain = 0
KCR1 110702Z 19005KT 24/20 A3006 RMK A01 T02410203  RH  079%=      5-min Rain = 0
KCR1 110703Z 20005KT 24/20 A3006 RMK A01 T02400203  RH  079%=      5-min Rain = 0
KCR1 110704Z 20005KT 24/20 A3006 RMK A01 T02400203  RH  079%=      5-min Rain = 0
KCR1 110705Z 20005KT 24/20 A3006 RMK A01 T02410203  RH  080%=      5-min Rain = 0
KCR1 110706Z 20005KT 24/20 A3006 RMK A01 T02410203  RH  079%=      5-min Rain = 0
KCR1 110707Z 20005KT 24/20 A3006 RMK A01 T02410203  RH  079%=      5-min Rain = 0
KCR1 110708Z 20005KT 24/20 A3006 RMK A01 T02420203  RH  079%=      5-min Rain = 0
KCR1 110709Z 20005KT 24/20 A3006 RMK A01 T02420203  RH  079%=      5-min Rain = 0
KCR1 110710Z 20005KT 24/20 A3006 RMK A01 T02430203  RH  078%=      5-min Rain = 0
KCR1 110711Z 20004KT 24/20 A3006 RMK A01 T02430203  RH  078%=      5-min Rain = 0
KCR1 110712Z 19005KT 24/20 A3006 RMK A01 T02430202  RH  078%=      5-min Rain = 0
KCR1 110713Z 19005KT 24/20 A3006 RMK A01 T02430203  RH  078%=      5-min Rain = 0
KCR1 110714Z 19005KT 24/20 A3006 RMK A01 T02430202  RH  078%=      5-min Rain = 0
KCR1 110715Z 19005KT 24/20 A3006 RMK A01 T02430202  RH  078%=      5-min Rain = 0
KCR1 110716Z 19005KT 24/20 A3006 RMK A01 T02430202  RH  078%=      5-min Rain = 0
KCR1 110717Z 19005KT 24/20 A3006 RMK A01 T02430202  RH  078%=      5-min Rain = 0
KCR1 110718Z 19005KT 24/20 A3006 RMK A01 T02420202  RH  078%=      5-min Rain = 0
KCR1 110719Z 18005KT 24/20 A3006 RMK A01 T02420202  RH  078%=      5-min Rain = 0
KCR1 110720Z 19005KT 24/20 A3006 RMK A01 T02420202  RH  078%=      5-min Rain = 0
KCR1 110721Z 19004KT 24/20 A3006 RMK A01 T02410201  RH  078%=      5-min Rain = 0
KCR1 110722Z 19005KT 24/20 A3006 RMK A01 T02410201  RH  079%=      5-min Rain = 0
KCR1 110723Z 19005KT 24/20 A3006 RMK A01 T02410201  RH  079%=      5-min Rain = 0
KCR1 110724Z 19005KT 24/20 A3006 RMK A01 T02400201  RH  079%=      5-min Rain = 0
KCR1 110725Z 19005KT 24/20 A3006 RMK A01 T02400201  RH  079%=      5-min Rain = 0
KCR1 110726Z 18005KT 24/20 A3006 RMK A01 T02400201  RH  079%=      5-min Rain = 0
KCR1 110727Z 18004KT 24/20 A3006 RMK A01 T02390201  RH  079%=      5-min Rain = 0
KCR1 110728Z 18004KT 24/20 A3006 RMK A01 T02390201  RH  079%=      5-min Rain = 0
KCR1 110729Z 18004KT 24/20 A3006 RMK A01 T02380201  RH  079%=      5-min Rain = 0
KCR1 110730Z 18004KT 24/20 A3006 RMK A01 T02370200  RH  080%=      5-min Rain = 0
KCR1 110731Z 18004KT 24/20 A3006 RMK A01 T02370201  RH  080%=      5-min Rain = 0
KCR1 110732Z 18004KT 24/20 A3006 RMK A01 T02370201  RH  080%=      5-min Rain = 0
KCR1 110733Z 18004KT 24/20 A3006 RMK A01 T02360201  RH  080%=      5-min Rain = 0
KCR1 110734Z 18004KT 24/20 A3006 RMK A01 T02360200  RH  081%=      5-min Rain = 0
KCR1 110735Z 19004KT 24/20 A3006 RMK A01 T02360200  RH  080%=      5-min Rain = 0
KCR1 110736Z 19004KT 24/20 A3006 RMK A01 T02360200  RH  080%=      5-min Rain = 0
KCR1 110737Z 19004KT 24/20 A3006 RMK A01 T02360200  RH  080%=      5-min Rain = 0
KCR1 110738Z 19004KT 24/20 A3006 RMK A01 T02370200  RH  080%=      5-min Rain = 0
KCR1 110739Z 19004KT 24/20 A3006 RMK A01 T02370200  RH  080%=      5-min Rain = 0
KCR1 110740Z 20004KT 24/20 A3006 RMK A01 T02370200  RH  080%=      5-min Rain = 0
KCR1 110741Z 20004KT 24/20 A3006 RMK A01 T02380200  RH  079%=      5-min Rain = 0
KCR1 110742Z 20004KT 24/20 A3006 RMK A01 T02390200  RH  079%=      5-min Rain = 0
KCR1 110743Z 20003KT 24/20 A3006 RMK A01 T02390200  RH  079%=      5-min Rain = 0
KCR1 110744Z 20003KT 24/20 A3006 RMK A01 T02390200  RH  079%=      5-min Rain = 0
KCR1 110745Z 20003KT 24/20 A3006 RMK A01 T02400200  RH  079%=      5-min Rain = 0
KCR1 110746Z 20003KT 24/20 A3006 RMK A01 T02400200  RH  079%=      5-min Rain = 0
KCR1 110747Z 20003KT 24/20 A3006 RMK A01 T02400201  RH  079%=      5-min Rain = 0
KCR1 110748Z 20003KT 24/20 A3006 RMK A01 T02400201  RH  079%=      5-min Rain = 0
KCR1 110749Z 20003KT 24/20 A3006 RMK A01 T02410201  RH  079%=      5-min Rain = 0
KCR1 110750Z 20003KT 24/20 A3006 RMK A01 T02400201  RH  079%=      5-min Rain = 0
KCR1 110751Z 20003KT 24/20 A3006 RMK A01 T02400201  RH  078%=      5-min Rain = 0
KCR1 110752Z 20002KT 24/20 A3006 RMK A01 T02400201  RH  078%=      5-min Rain = 0
KCR1 110753Z 21002KT 24/20 A3006 RMK A01 T02390200  RH  079%=      5-min Rain = 0
KCR1 110754Z 21003KT 24/20 A3006 RMK A01 T02380200  RH  079%=      5-min Rain = 0
KCR1 110755Z 21003KT 24/20 A3006 RMK A01 T02380200  RH  079%=      5-min Rain = 0
KCR1 110756Z 21003KT 24/20 A3006 RMK A01 T02380200  RH  079%=      5-min Rain = 0
KCR1 110757Z 22003KT 24/20 A3006 RMK A01 T02370200  RH  080%=      5-min Rain = 0
KCR1 110758Z 22003KT 24/20 A3006 RMK A01 T02370199  RH  079%=      5-min Rain = 0
KCR1 110759Z 21003KT 24/20 A3006 RMK A01 T02360199  RH  079%=      5-min Rain = 0
KCR1 110800Z 21003KT 24/20 A3006 RMK A01 T02360199  RH  080%=      5-min Rain = 0
KCR1 110801Z 21003KT 24/20 A3006 RMK A01 T02360199  RH  080%=      5-min Rain = 0
KCR1 110802Z 21003KT 24/20 A3006 RMK A01 T02350199  RH  080%=      5-min Rain = 0
KCR1 110803Z 21003KT 24/20 A3006 RMK A01 T02350199  RH  080%=      5-min Rain = 0
KCR1 110804Z 21003KT 24/20 A3006 RMK A01 T02350199  RH  080%=      5-min Rain = 0
KCR1 110805Z 21003KT 24/20 A3006 RMK A01 T02350199  RH  080%=      5-min Rain = 0
KCR1 110806Z 20003KT 24/20 A3006 RMK A01 T02360199  RH  080%=      5-min Rain = 0
KCR1 110807Z 20004KT 24/20 A3006 RMK A01 T02360199  RH  080%=      5-min Rain = 0
KCR1 110808Z 20004KT 24/20 A3006 RMK A01 T02370199  RH  079%=      5-min Rain = 0
KCR1 110809Z 20004KT 24/20 A3006 RMK A01 T02370199  RH  079%=      5-min Rain = 0
KCR1 110810Z 20004KT 24/20 A3006 RMK A01 T02380199  RH  079%=      5-min Rain = 0
KCR1 110811Z 20004KT 24/20 A3006 RMK A01 T02380199  RH  079%=      5-min Rain = 0
KCR1 110812Z 20004KT 24/20 A3005 RMK A01 T02380199  RH  078%=      5-min Rain = 0
KCR1 110813Z 20004KT 24/20 A3005 RMK A01 T02380199  RH  078%=      5-min Rain = 0
KCR1 110814Z 20004KT 24/20 A3005 RMK A01 T02390199  RH  078%=      5-min Rain = 0
KCR1 110815Z 21004KT 24/20 A3005 RMK A01 T02380198  RH  078%=      5-min Rain = 0
KCR1 110816Z 21003KT 24/20 A3005 RMK A01 T02380198  RH  078%=      5-min Rain = 0
KCR1 110817Z 21003KT 24/20 A3005 RMK A01 T02380198  RH  078%=      5-min Rain = 0
KCR1 110818Z 21003KT 24/20 A3005 RMK A01 T02390199  RH  078%=      5-min Rain = 0
KCR1 110819Z 21003KT 24/20 A3005 RMK A01 T02380198  RH  078%=      5-min Rain = 0
KCR1 110820Z 21003KT 24/20 A3005 RMK A01 T02380198  RH  078%=      5-min Rain = 0
KCR1 110821Z 21003KT 24/20 A3005 RMK A01 T02370198  RH  079%=      5-min Rain = 0
KCR1 110822Z 20003KT 24/20 A3005 RMK A01 T02360197  RH  079%=      5-min Rain = 0
KCR1 110823Z 21003KT 24/20 A3005 RMK A01 T02360198  RH  079%=      5-min Rain = 0
KCR1 110824Z 21003KT 24/20 A3005 RMK A01 T02360198  RH  079%=      5-min Rain = 0
KCR1 110825Z 21003KT 24/20 A3005 RMK A01 T02360198  RH  079%=      5-min Rain = 0
KCR1 110826Z 21003KT 24/20 A3005 RMK A01 T02360198  RH  079%=      5-min Rain = 0
KCR1 110827Z 21003KT 24/20 A3005 RMK A01 T02360198  RH  079%=      5-min Rain = 0
KCR1 110828Z 21003KT 24/20 A3005 RMK A01 T02370198  RH  079%=      5-min Rain = 0
KCR1 110829Z 21003KT 24/20 A3005 RMK A01 T02370198  RH  079%=      5-min Rain = 0
KCR1 110830Z 21004KT 24/20 A3005 RMK A01 T02370198  RH  079%=      5-min Rain = 0
KCR1 110831Z 22004KT 24/20 A3005 RMK A01 T02360198  RH  079%=      5-min Rain = 0
KCR1 110832Z 22004KT 24/20 A3005 RMK A01 T02360198  RH  079%=      5-min Rain = 0
KCR1 110833Z 22004KT 24/20 A3005 RMK A01 T02360198  RH  079%=      5-min Rain = 0
KCR1 110834Z 22004KT 24/20 A3005 RMK A01 T02350198  RH  080%=      5-min Rain = 0
KCR1 110835Z 22004KT 24/20 A3005 RMK A01 T02350199  RH  080%=      5-min Rain = 0
KCR1 110836Z 22004KT 24/20 A3005 RMK A01 T02350199  RH  080%=      5-min Rain = 0
KCR1 110837Z 21004KT 24/20 A3005 RMK A01 T02350199  RH  080%=      5-min Rain = 0
KCR1 110838Z 21004KT 24/20 A3005 RMK A01 T02350199  RH  080%=      5-min Rain = 0
KCR1 110839Z 21004KT 24/20 A3005 RMK A01 T02360199  RH  080%=      5-min Rain = 0
KCR1 110840Z 21004KT 24/20 A3005 RMK A01 T02360199  RH  080%=      5-min Rain = 0
KCR1 110841Z 21004KT 24/20 A3005 RMK A01 T02360199  RH  079%=      5-min Rain = 0
KCR1 110842Z 21004KT 24/20 A3005 RMK A01 T02360198  RH  079%=      5-min Rain = 0
KCR1 110843Z 22004KT 24/20 A3005 RMK A01 T02360199  RH  079%=      5-min Rain = 0
KCR1 110844Z 22004KT 24/20 A3005 RMK A01 T02370199  RH  079%=      5-min Rain = 0
KCR1 110845Z 22004KT 24/20 A3005 RMK A01 T02370199  RH  079%=      5-min Rain = 0
KCR1 110846Z 22004KT 24/20 A3005 RMK A01 T02370199  RH  079%=      5-min Rain = 0
KCR1 110847Z 22004KT 24/20 A3005 RMK A01 T02370199  RH  079%=      5-min Rain = 0
KCR1 110848Z 22004KT 24/20 A3005 RMK A01 T02360198  RH  079%=      5-min Rain = 0
KCR1 110849Z 22004KT 24/20 A3005 RMK A01 T02360199  RH  079%=      5-min Rain = 0
KCR1 110850Z 22004KT 24/20 A3005 RMK A01 T02360198  RH  079%=      5-min Rain = 0
KCR1 110851Z 22004KT 24/20 A3005 RMK A01 T02360198  RH  079%=      5-min Rain = 0
KCR1 110852Z 22004KT 24/20 A3005 RMK A01 T02360198  RH  080%=      5-min Rain = 0
KCR1 110853Z 22004KT 24/20 A3005 RMK A01 T02360199  RH  080%=      5-min Rain = 0
KCR1 110854Z 22004KT 24/20 A3005 RMK A01 T02360198  RH  080%=      5-min Rain = 0
KCR1 110855Z 22003KT 24/20 A3005 RMK A01 T02350198  RH  080%=      5-min Rain = 0
KCR1 110856Z 22004KT 24/20 A3005 RMK A01 T02350198  RH  080%=      5-min Rain = 0
KCR1 110857Z 22003KT 24/20 A3005 RMK A01 T02350198  RH  080%=      5-min Rain = 0
KCR1 110858Z 22003KT 23/20 A3005 RMK A01 T02340198  RH  080%=      5-min Rain = 0
KCR1 110859Z 23003KT 23/20 A3005 RMK A01 T02340198  RH  080%=      5-min Rain = 0
KCR1 110900Z 23003KT 23/20 A3005 RMK A01 T02340198  RH  080%=      5-min Rain = 0
KCR1 110901Z 23003KT 23/20 A3005 RMK A01 T02330198  RH  080%=      5-min Rain = 0
KCR1 110902Z 23003KT 23/20 A3005 RMK A01 T02330198  RH  081%=      5-min Rain = 0
KCR1 110903Z 23003KT 23/20 A3005 RMK A01 T02330198  RH  081%=      5-min Rain = 0
KCR1 110904Z 23003KT 23/20 A3005 RMK A01 T02330198  RH  081%=      5-min Rain = 0
KCR1 110905Z 23003KT 23/20 A3005 RMK A01 T02330198  RH  081%=      5-min Rain = 0
KCR1 110906Z 23003KT 23/20 A3005 RMK A01 T02330198  RH  081%=      5-min Rain = 0
KCR1 110907Z 23003KT 23/20 A3005 RMK A01 T02330198  RH  081%=      5-min Rain = 0
KCR1 110908Z 23003KT 23/20 A3005 RMK A01 T02320198  RH  081%=      5-min Rain = 0
KCR1 110909Z 23004KT 23/20 A3005 RMK A01 T02330198  RH  081%=      5-min Rain = 0
KCR1 110910Z 23004KT 23/20 A3005 RMK A01 T02330197  RH  081%=      5-min Rain = 0
KCR1 110911Z 23004KT 23/20 A3005 RMK A01 T02330197  RH  081%=      5-min Rain = 0
KCR1 110912Z 23004KT 23/20 A3005 RMK A01 T02330198  RH  081%=      5-min Rain = 0
KCR1 110913Z 23004KT 23/20 A3005 RMK A01 T02320197  RH  081%=      5-min Rain = 0
KCR1 110914Z 23004KT 23/20 A3005 RMK A01 T02330198  RH  081%=      5-min Rain = 0
KCR1 110915Z 23004KT 23/20 A3005 RMK A01 T02330198  RH  081%=      5-min Rain = 0
KCR1 110916Z 23004KT 23/20 A3005 RMK A01 T02330198  RH  081%=      5-min Rain = 0
KCR1 110917Z 24004KT 23/20 A3005 RMK A01 T02330198  RH  081%=      5-min Rain = 0
KCR1 110918Z 24004KT 23/20 A3005 RMK A01 T02330198  RH  081%=      5-min Rain = 0
KCR1 110919Z 24004KT 23/20 A3005 RMK A01 T02330198  RH  081%=      5-min Rain = 0
KCR1 110920Z 24004KT 23/20 A3005 RMK A01 T02330198  RH  081%=      5-min Rain = 0
KCR1 110921Z 24004KT 23/20 A3005 RMK A01 T02320198  RH  081%=      5-min Rain = 0
KCR1 110922Z 24004KT 23/20 A3005 RMK A01 T02320197  RH  081%=      5-min Rain = 0
KCR1 110923Z 24004KT 23/20 A3005 RMK A01 T02320198  RH  081%=      5-min Rain = 0
KCR1 110924Z 24004KT 23/20 A3005 RMK A01 T02320198  RH  081%=      5-min Rain = 0
KCR1 110925Z 24005KT 23/20 A3005 RMK A01 T02310197  RH  081%=      5-min Rain = 0
KCR1 110926Z 24004KT 23/20 A3005 RMK A01 T02310197  RH  081%=      5-min Rain = 0
KCR1 110927Z 24004KT 23/20 A3005 RMK A01 T02310197  RH  081%=      5-min Rain = 0
KCR1 110928Z 24004KT 23/20 A3005 RMK A01 T02320197  RH  081%=      5-min Rain = 0
KCR1 110929Z 23004KT 23/20 A3005 RMK A01 T02320197  RH  081%=      5-min Rain = 0
KCR1 110930Z 24004KT 23/20 A3005 RMK A01 T02320197  RH  081%=      5-min Rain = 0
KCR1 110931Z 23004KT 23/20 A3005 RMK A01 T02320197  RH  081%=      5-min Rain = 0
KCR1 110932Z 23004KT 23/20 A3005 RMK A01 T02310197  RH  081%=      5-min Rain = 0
KCR1 110933Z 23004KT 23/20 A3005 RMK A01 T02320197  RH  081%=      5-min Rain = 0
KCR1 110934Z 23004KT 23/20 A3005 RMK A01 T02320197  RH  081%=      5-min Rain = 0
KCR1 110935Z 23004KT 23/20 A3005 RMK A01 T02320197  RH  081%=      5-min Rain = 0
KCR1 110936Z 23004KT 23/20 A3005 RMK A01 T02330197  RH  080%=      5-min Rain = 0
KCR1 110937Z 23004KT 23/20 A3005 RMK A01 T02330197  RH  080%=      5-min Rain = 0
KCR1 110938Z 23004KT 23/20 A3005 RMK A01 T02330196  RH  080%=      5-min Rain = 0
KCR1 110939Z 23004KT 23/20 A3005 RMK A01 T02340197  RH  080%=      5-min Rain = 0
KCR1 110940Z 23004KT 23/20 A3005 RMK A01 T02340197  RH  080%=      5-min Rain = 0
KCR1 110941Z 23004KT 23/20 A3005 RMK A01 T02330197  RH  080%=      5-min Rain = 0
KCR1 110942Z 23004KT 23/20 A3005 RMK A01 T02330197  RH  080%=      5-min Rain = 0
KCR1 110943Z 23004KT 23/20 A3005 RMK A01 T02330197  RH  080%=      5-min Rain = 0
KCR1 110944Z 23004KT 23/20 A3005 RMK A01 T02320197  RH  080%=      5-min Rain = 0
KCR1 110945Z 23004KT 23/20 A3005 RMK A01 T02330197  RH  080%=      5-min Rain = 0
KCR1 110946Z 23004KT 23/20 A3005 RMK A01 T02320197  RH  080%=      5-min Rain = 0
KCR1 110947Z 23004KT 23/20 A3005 RMK A01 T02320197  RH  080%=      5-min Rain = 0
KCR1 110948Z 23004KT 23/20 A3004 RMK A01 T02320197  RH  080%=      5-min Rain = 0
KCR1 110949Z 23004KT 23/20 A3004 RMK A01 T02320197  RH  080%=      5-min Rain = 0
KCR1 110950Z 23004KT 23/20 A3004 RMK A01 T02320197  RH  080%=      5-min Rain = 0
KCR1 110951Z 23004KT 23/20 A3004 RMK A01 T02320196  RH  080%=      5-min Rain = 0
KCR1 110952Z 22004KT 23/20 A3004 RMK A01 T02330197  RH  080%=      5-min Rain = 0
KCR1 110953Z 22004KT 23/20 A3004 RMK A01 T02330197  RH  080%=      5-min Rain = 0
KCR1 110954Z 23004KT 23/20 A3004 RMK A01 T02330197  RH  080%=      5-min Rain = 0
KCR1 110955Z 23005KT 23/20 A3004 RMK A01 T02330196  RH  080%=      5-min Rain = 0
KCR1 110956Z 23004KT 23/20 A3004 RMK A01 T02340196  RH  080%=      5-min Rain = 0
KCR1 110957Z 23004KT 23/20 A3004 RMK A01 T02340196  RH  080%=      5-min Rain = 0
KCR1 110958Z 23004KT 23/20 A3004 RMK A01 T02330196  RH  080%=      5-min Rain = 0
KCR1 110959Z 22004KT 23/20 A3004 RMK A01 T02330197  RH  080%=      5-min Rain = 0
KCR1 111000Z 22004KT 23/20 A3004 RMK A01 T02330196  RH  080%=      5-min Rain = 0
KCR1 111001Z 22004KT 23/20 A3004 RMK A01 T02330196  RH  080%=      5-min Rain = 0
KCR1 111002Z 22004KT 23/20 A3004 RMK A01 T02330196  RH  080%=      5-min Rain = 0
KCR1 111003Z 22004KT 23/20 A3004 RMK A01 T02330196  RH  080%=      5-min Rain = 0
KCR1 111004Z 22004KT 23/20 A3004 RMK A01 T02320196  RH  080%=      5-min Rain = 0
KCR1 111005Z 22004KT 23/20 A3004 RMK A01 T02320196  RH  080%=      5-min Rain = 0
KCR1 111006Z 22004KT 23/20 A3004 RMK A01 T02320196  RH  080%=      5-min Rain = 0
KCR1 111007Z 22004KT 23/20 A3004 RMK A01 T02320196  RH  080%=      5-min Rain = 0
KCR1 111008Z 22004KT 23/20 A3004 RMK A01 T02320196  RH  080%=      5-min Rain = 0
KCR1 111009Z 22004KT 23/20 A3004 RMK A01 T02320196  RH  080%=      5-min Rain = 0
KCR1 111010Z 22004KT 23/20 A3004 RMK A01 T02320196  RH  080%=      5-min Rain = 0
KCR1 111011Z 22004KT 23/20 A3004 RMK A01 T02320196  RH  080%=      5-min Rain = 0
KCR1 111012Z 22004KT 23/20 A3004 RMK A01 T02320196  RH  080%=      5-min Rain = 0
KCR1 111013Z 22004KT 23/20 A3004 RMK A01 T02320196  RH  080%=      5-min Rain = 0
KCR1 111014Z 22004KT 23/20 A3004 RMK A01 T02320196  RH  080%=      5-min Rain = 0
KCR1 111015Z 21004KT 23/20 A3004 RMK A01 T02320196  RH  080%=      5-min Rain = 0
KCR1 111016Z 22004KT 23/20 A3004 RMK A01 T02320196  RH  080%=      5-min Rain = 0
KCR1 111017Z 22004KT 23/20 A3004 RMK A01 T02330196  RH  080%=      5-min Rain = 0
KCR1 111018Z 22004KT 23/20 A3004 RMK A01 T02330196  RH  080%=      5-min Rain = 0
KCR1 111019Z 23004KT 23/20 A3004 RMK A01 T02320196  RH  080%=      5-min Rain = 0
KCR1 111020Z 23004KT 23/20 A3004 RMK A01 T02320196  RH  080%=      5-min Rain = 0
KCR1 111021Z 23004KT 23/20 A3004 RMK A01 T02320196  RH  080%=      5-min Rain = 0
KCR1 111022Z 23004KT 23/20 A3004 RMK A01 T02320196  RH  080%=      5-min Rain = 0
KCR1 111023Z 23004KT 23/20 A3004 RMK A01 T02310196  RH  081%=      5-min Rain = 0
KCR1 111024Z 23004KT 23/20 A3004 RMK A01 T02300196  RH  081%=      5-min Rain = 0
KCR1 111025Z 23004KT 23/20 A3004 RMK A01 T02310196  RH  081%=      5-min Rain = 0
KCR1 111026Z 23003KT 23/20 A3004 RMK A01 T02300196  RH  081%=      5-min Rain = 0
KCR1 111027Z 23003KT 23/20 A3004 RMK A01 T02310197  RH  081%=      5-min Rain = 0
KCR1 111028Z 23004KT 23/20 A3004 RMK A01 T02310196  RH  081%=      5-min Rain = 0
KCR1 111029Z 23004KT 23/20 A3004 RMK A01 T02310196  RH  081%=      5-min Rain = 0
KCR1 111030Z 23004KT 23/20 A3004 RMK A01 T02320197  RH  081%=      5-min Rain = 0
KCR1 111031Z 23003KT 23/20 A3004 RMK A01 T02320197  RH  080%=      5-min Rain = 0
KCR1 111032Z 22003KT 23/20 A3004 RMK A01 T02330197  RH  080%=      5-min Rain = 0
KCR1 111033Z 22003KT 23/20 A3004 RMK A01 T02330197  RH  080%=      5-min Rain = 0
KCR1 111034Z 23003KT 23/20 A3004 RMK A01 T02330197  RH  080%=      5-min Rain = 0
KCR1 111035Z 23003KT 23/20 A3004 RMK A01 T02330197  RH  080%=      5-min Rain = 0
KCR1 111036Z 23003KT 23/20 A3004 RMK A01 T02330197  RH  080%=      5-min Rain = 0
KCR1 111037Z 22003KT 23/20 A3004 RMK A01 T02330197  RH  080%=      5-min Rain = 0
KCR1 111038Z 23003KT 23/20 A3004 RMK A01 T02330197  RH  080%=      5-min Rain = 0
KCR1 111039Z 22003KT 23/20 A3004 RMK A01 T02330197  RH  080%=      5-min Rain = 0
KCR1 111040Z 22003KT 23/20 A3004 RMK A01 T02340197  RH  080%=      5-min Rain = 0
KCR1 111041Z 21002KT 23/20 A3004 RMK A01 T02340197  RH  080%=      5-min Rain = 0
KCR1 111042Z 20002KT 23/20 A3004 RMK A01 T02340197  RH  080%=      5-min Rain = 0
KCR1 111043Z 21002KT 23/20 A3004 RMK A01 T02340197  RH  079%=      5-min Rain = 0
KCR1 111044Z 20002KT 23/20 A3004 RMK A01 T02340197  RH  079%=      5-min Rain = 0
KCR1 111045Z 20002KT 23/20 A3004 RMK A01 T02340196  RH  079%=      5-min Rain = 0
KCR1 111046Z 19002KT 23/20 A3004 RMK A01 T02330196  RH  080%=      5-min Rain = 0
KCR1 111047Z 19002KT 23/20 A3004 RMK A01 T02320196  RH  080%=      5-min Rain = 0
KCR1 111048Z 20002KT 23/20 A3004 RMK A01 T02310196  RH  080%=      5-min Rain = 0
KCR1 111049Z 21002KT 23/20 A3004 RMK A01 T02310196  RH  081%=      5-min Rain = 0
KCR1 111050Z 20002KT 23/20 A3004 RMK A01 T02310196  RH  081%=      5-min Rain = 0
KCR1 111051Z 20002KT 23/20 A3004 RMK A01 T02310196  RH  081%=      5-min Rain = 0
KCR1 111052Z 20002KT 23/20 A3004 RMK A01 T02300196  RH  081%=      5-min Rain = 0
KCR1 111053Z 20002KT 23/20 A3004 RMK A01 T02300196  RH  081%=      5-min Rain = 0
KCR1 111054Z 20002KT 23/20 A3004 RMK A01 T02300196  RH  081%=      5-min Rain = 0
KCR1 111055Z 20002KT 23/20 A3004 RMK A01 T02290196  RH  081%=      5-min Rain = 0
KCR1 111056Z 18002KT 23/20 A3004 RMK A01 T02290196  RH  082%=      5-min Rain = 0
KCR1 111057Z 17002KT 23/20 A3004 RMK A01 T02290196  RH  082%=      5-min Rain = 0
KCR1 111058Z 17002KT 23/20 A3005 RMK A01 T02280196  RH  082%=      5-min Rain = 0
KCR1 111059Z 16002KT 23/20 A3005 RMK A01 T02280196  RH  082%=      5-min Rain = 0
KCR1 111100Z 15002KT 23/20 A3005 RMK A01 T02280196  RH  082%=      5-min Rain = 0
KCR1 111101Z 15002KT 23/20 A3005 RMK A01 T02280196  RH  082%=      5-min Rain = 0
KCR1 111102Z 15002KT 23/20 A3005 RMK A01 T02280196  RH  082%=      5-min Rain = 0
KCR1 111103Z 14002KT 23/20 A3005 RMK A01 T02280196  RH  082%=      5-min Rain = 0
KCR1 111104Z 13002KT 23/20 A3005 RMK A01 T02280196  RH  082%=      5-min Rain = 0
KCR1 111105Z 13002KT 23/20 A3005 RMK A01 T02280196  RH  082%=      5-min Rain = 0
KCR1 111106Z 13002KT 23/20 A3005 RMK A01 T02280195  RH  082%=      5-min Rain = 0
KCR1 111107Z 12002KT 23/20 A3005 RMK A01 T02290196  RH  082%=      5-min Rain = 0
KCR1 111108Z 12002KT 23/20 A3005 RMK A01 T02290196  RH  081%=      5-min Rain = 0
KCR1 111109Z 11003KT 23/20 A3005 RMK A01 T02300196  RH  081%=      5-min Rain = 0
KCR1 111110Z 11003KT 23/20 A3005 RMK A01 T02300196  RH  081%=      5-min Rain = 0
KCR1 111111Z 11003KT 23/20 A3005 RMK A01 T02300196  RH  081%=      5-min Rain = 0
KCR1 111112Z 11003KT 23/20 A3005 RMK A01 T02310196  RH  081%=      5-min Rain = 0
KCR1 111113Z 11003KT 23/20 A3005 RMK A01 T02310195  RH  080%=      5-min Rain = 0
KCR1 111114Z 10003KT 23/20 A3005 RMK A01 T02310195  RH  080%=      5-min Rain = 0
KCR1 111115Z 10004KT 23/20 A3005 RMK A01 T02320195  RH  080%=      5-min Rain = 0
KCR1 111116Z 10003KT 23/20 A3005 RMK A01 T02310195  RH  080%=      5-min Rain = 0
KCR1 111117Z 09004KT 23/19 A3005 RMK A01 T02310194  RH  080%=      5-min Rain = 0
KCR1 111118Z 09004KT 23/19 A3005 RMK A01 T02290194  RH  080%=      5-min Rain = 0
KCR1 111119Z 09004KT 23/19 A3005 RMK A01 T02290193  RH  080%=      5-min Rain = 0
KCR1 111120Z 09004KT 23/19 A3005 RMK A01 T02270192  RH  080%=      5-min Rain = 0
KCR1 111121Z 09004KT 23/19 A3005 RMK A01 T02270192  RH  081%=      5-min Rain = 0
KCR1 111122Z 09004KT 23/19 A3005 RMK A01 T02270192  RH  081%=      5-min Rain = 0
KCR1 111123Z 10003KT 23/19 A3005 RMK A01 T02260192  RH  081%=      5-min Rain = 0
KCR1 111124Z 11003KT 23/19 A3005 RMK A01 T02260192  RH  081%=      5-min Rain = 0
KCR1 111125Z 10003KT 23/19 A3005 RMK A01 T02260192  RH  081%=      5-min Rain = 0
KCR1 111126Z 10002KT 23/19 A3005 RMK A01 T02260191  RH  081%=      5-min Rain = 0
KCR1 111127Z 11002KT 23/19 A3005 RMK A01 T02260192  RH  081%=      5-min Rain = 0
KCR1 111128Z 11002KT 23/19 A3005 RMK A01 T02260192  RH  081%=      5-min Rain = 0
KCR1 111129Z 11002KT 23/19 A3005 RMK A01 T02260192  RH  081%=      5-min Rain = 0
KCR1 111130Z 12001KT 23/19 A3005 RMK A01 T02260192  RH  081%=      5-min Rain = 0
KCR1 111131Z 12001KT 23/19 A3005 RMK A01 T02260192  RH  081%=      5-min Rain = 0
KCR1 111132Z 13001KT 23/19 A3005 RMK A01 T02260191  RH  081%=      5-min Rain = 0
KCR1 111133Z 13001KT 23/19 A3005 RMK A01 T02260192  RH  081%=      5-min Rain = 0
KCR1 111134Z 13001KT 23/19 A3006 RMK A01 T02260192  RH  081%=      5-min Rain = 0
KCR1 111135Z 12001KT 23/19 A3006 RMK A01 T02260191  RH  081%=      5-min Rain = 0
KCR1 111136Z 11001KT 23/19 A3006 RMK A01 T02260192  RH  081%=      5-min Rain = 0
KCR1 111137Z 11001KT 23/19 A3006 RMK A01 T02260191  RH  081%=      5-min Rain = 0
KCR1 111138Z 11001KT 23/19 A3006 RMK A01 T02250191  RH  081%=      5-min Rain = 0
KCR1 111139Z 11001KT 23/19 A3006 RMK A01 T02250191  RH  081%=      5-min Rain = 0
KCR1 111140Z 11002KT 23/19 A3006 RMK A01 T02250192  RH  082%=      5-min Rain = 0
KCR1 111141Z 11002KT 23/19 A3006 RMK A01 T02250192  RH  082%=      5-min Rain = 0
KCR1 111142Z 11002KT 23/19 A3006 RMK A01 T02260193  RH  082%=      5-min Rain = 0
KCR1 111143Z 09002KT 23/19 A3006 RMK A01 T02260193  RH  081%=      5-min Rain = 0
KCR1 111144Z 09002KT 23/19 A3006 RMK A01 T02270193  RH  081%=      5-min Rain = 0
KCR1 111145Z 10002KT 23/19 A3006 RMK A01 T02270193  RH  081%=      5-min Rain = 0
KCR1 111146Z 10002KT 23/19 A3006 RMK A01 T02270192  RH  080%=      5-min Rain = 0
KCR1 111147Z 09002KT 23/19 A3006 RMK A01 T02280192  RH  080%=      5-min Rain = 0
KCR1 111148Z 09002KT 23/19 A3006 RMK A01 T02280191  RH  080%=      5-min Rain = 0
KCR1 111149Z 10002KT 23/19 A3006 RMK A01 T02270192  RH  080%=      5-min Rain = 0
KCR1 111150Z 10002KT 23/19 A3006 RMK A01 T02270193  RH  081%=      5-min Rain = 0
KCR1 111151Z 10002KT 23/19 A3006 RMK A01 T02270192  RH  081%=      5-min Rain = 0
KCR1 111152Z 10002KT 23/19 A3006 RMK A01 T02270193  RH  081%=      5-min Rain = 0
KCR1 111153Z 10002KT 23/19 A3006 RMK A01 T02270193  RH  081%=      5-min Rain = 0
KCR1 111154Z 10002KT 23/19 A3006 RMK A01 T02260193  RH  081%=      5-min Rain = 0
KCR1 111155Z 10002KT 23/19 A3006 RMK A01 T02260193  RH  081%=      5-min Rain = 0
KCR1 111156Z 09001KT 23/19 A3006 RMK A01 T02270193  RH  081%=      5-min Rain = 0
KCR1 111157Z 09001KT 23/19 A3006 RMK A01 T02270192  RH  080%=      5-min Rain = 0
KCR1 111158Z 10001KT 23/19 A3006 RMK A01 T02270191  RH  080%=      5-min Rain = 0
KCR1 111159Z 09001KT 23/19 A3006 RMK A01 T02270191  RH  080%=      5-min Rain = 0
KCR1 111200Z 10001KT 23/19 A3007 RMK A01 T02270190  RH  079%=      5-min Rain = 0
KCR1 111201Z 10001KT 23/19 A3007 RMK A01 T02270189  RH  079%=      5-min Rain = 0
KCR1 111202Z 10001KT 23/19 A3007 RMK A01 T02270189  RH  079%=      5-min Rain = 0
KCR1 111203Z 09001KT 23/19 A3007 RMK A01 T02270189  RH  079%=      5-min Rain = 0
KCR1 111204Z 08000KT 23/19 A3007 RMK A01 T02270189  RH  079%=      5-min Rain = 0
KCR1 111205Z 07001KT 23/19 A3007 RMK A01 T02270188  RH  079%=      5-min Rain = 0
KCR1 111206Z 07001KT 23/19 A3007 RMK A01 T02270187  RH  078%=      5-min Rain = 0
KCR1 111207Z 05001KT 23/19 A3007 RMK A01 T02270187  RH  078%=      5-min Rain = 0
KCR1 111208Z 04002KT 23/19 A3007 RMK A01 T02270187  RH  078%=      5-min Rain = 0
KCR1 111209Z 04002KT 23/19 A3007 RMK A01 T02270186  RH  078%=      5-min Rain = 0
KCR1 111210Z 04002KT 23/19 A3007 RMK A01 T02270186  RH  078%=      5-min Rain = 0
KCR1 111211Z 05003KT 23/19 A3007 RMK A01 T02270187  RH  078%=      5-min Rain = 0
KCR1 111212Z 05003KT 23/19 A3007 RMK A01 T02270187  RH  078%=      5-min Rain = 0
KCR1 111213Z 05003KT 23/19 A3007 RMK A01 T02260188  RH  079%=      5-min Rain = 0
KCR1 111214Z 06004KT 23/19 A3007 RMK A01 T02270188  RH  079%=      5-min Rain = 0
KCR1 111215Z 06004KT 23/19 A3007 RMK A01 T02270187  RH  078%=      5-min Rain = 0
KCR1 111216Z 06004KT 23/19 A3007 RMK A01 T02270187  RH  078%=      5-min Rain = 0
KCR1 111217Z 06004KT 23/19 A3007 RMK A01 T02270188  RH  079%=      5-min Rain = 0
KCR1 111218Z 05004KT 23/19 A3007 RMK A01 T02270188  RH  078%=      5-min Rain = 0
KCR1 111219Z 05004KT 23/19 A3007 RMK A01 T02270188  RH  078%=      5-min Rain = 0
KCR1 111220Z 05004KT 23/19 A3007 RMK A01 T02270188  RH  078%=      5-min Rain = 0
KCR1 111221Z 05003KT 23/19 A3007 RMK A01 T02270188  RH  078%=      5-min Rain = 0
KCR1 111222Z 05003KT 23/19 A3007 RMK A01 T02280189  RH  078%=      5-min Rain = 0
KCR1 111223Z 04003KT 23/19 A3007 RMK A01 T02280189  RH  078%=      5-min Rain = 0
KCR1 111224Z 04003KT 23/19 A3007 RMK A01 T02290189  RH  079%=      5-min Rain = 0
KCR1 111225Z 04003KT 23/19 A3007 RMK A01 T02290190  RH  078%=      5-min Rain = 0
KCR1 111226Z 04002KT 23/19 A3007 RMK A01 T02290190  RH  078%=      5-min Rain = 0
KCR1 111227Z 04002KT 23/19 A3007 RMK A01 T02290191  RH  079%=      5-min Rain = 0
KCR1 111228Z 04002KT 23/19 A3007 RMK A01 T02300191  RH  079%=      5-min Rain = 0
KCR1 111229Z 04002KT 23/19 A3007 RMK A01 T02300192  RH  079%=      5-min Rain = 0
KCR1 111230Z 04002KT 23/19 A3007 RMK A01 T02300192  RH  079%=      5-min Rain = 0
KCR1 111231Z 05002KT 23/19 A3007 RMK A01 T02310192  RH  079%=      5-min Rain = 0
KCR1 111232Z 05002KT 23/19 A3007 RMK A01 T02320193  RH  079%=      5-min Rain = 0
KCR1 111233Z 06002KT 23/19 A3007 RMK A01 T02320192  RH  078%=      5-min Rain = 0
KCR1 111234Z 06002KT 23/19 A3007 RMK A01 T02330192  RH  078%=      5-min Rain = 0
KCR1 111235Z 06003KT 23/19 A3007 RMK A01 T02340194  RH  078%=      5-min Rain = 0
KCR1 111236Z 07003KT 24/19 A3007 RMK A01 T02350194  RH  078%=      5-min Rain = 0
KCR1 111237Z 07003KT 24/19 A3008 RMK A01 T02350194  RH  077%=      5-min Rain = 0
KCR1 111238Z 07004KT 24/20 A3008 RMK A01 T02360195  RH  077%=      5-min Rain = 0
KCR1 111239Z 08003KT 24/20 A3008 RMK A01 T02370195  RH  078%=      5-min Rain = 0
KCR1 111240Z 07003KT 24/20 A3008 RMK A01 T02370196  RH  078%=      5-min Rain = 0
KCR1 111241Z 07003KT 24/20 A3008 RMK A01 T02370195  RH  077%=      5-min Rain = 0
KCR1 111242Z 08003KT 24/20 A3008 RMK A01 T02380197  RH  077%=      5-min Rain = 0
KCR1 111243Z 07004KT 24/20 A3008 RMK A01 T02400197  RH  077%=      5-min Rain = 0
KCR1 111244Z 08003KT 24/20 A3008 RMK A01 T02410197  RH  076%=      5-min Rain = 0
KCR1 111245Z 07004KT 24/20 A3008 RMK A01 T02420198  RH  076%=      5-min Rain = 0
KCR1 111246Z 07004KT 24/20 A3008 RMK A01 T02430199  RH  076%=      5-min Rain = 0
KCR1 111247Z 08005KT 24/20 A3008 RMK A01 T02440199  RH  076%=      5-min Rain = 0
KCR1 111248Z 08005KT 24/20 A3008 RMK A01 T02440199  RH  076%=      5-min Rain = 0
KCR1 111249Z 08005KT 24/20 A3008 RMK A01 T02440200  RH  076%=      5-min Rain = 0
KCR1 111250Z 09005KT 25/20 A3008 RMK A01 T02450201  RH  076%=      5-min Rain = 0
KCR1 111251Z 09004KT 25/20 A3008 RMK A01 T02460201  RH  076%=      5-min Rain = 0
KCR1 111252Z 09004KT 25/20 A3008 RMK A01 T02470201  RH  075%=      5-min Rain = 0
KCR1 111253Z 09004KT 25/20 A3008 RMK A01 T02490202  RH  075%=      5-min Rain = 0
KCR1 111254Z 09005KT 25/20 A3008 RMK A01 T02510202  RH  074%=      5-min Rain = 0
KCR1 111255Z 10004KT 25/20 A3008 RMK A01 T02500201  RH  074%=      5-min Rain = 0
KCR1 111256Z 10004KT 25/20 A3008 RMK A01 T02500201  RH  074%=      5-min Rain = 0
KCR1 111257Z 09004KT 25/20 A3008 RMK A01 T02510202  RH  074%=      5-min Rain = 0
KCR1 111258Z 10003KT 25/20 A3008 RMK A01 T02530203  RH  074%=      5-min Rain = 0
KCR1 111259Z 10003KT 26/20 A3008 RMK A01 T02550203  RH  073%=      5-min Rain = 0
KCR1 111300Z 08003KT 26/20 A3008 RMK A01 T02550202  RH  072%=      5-min Rain = 0
KCR1 111301Z 10002KT 26/20 A3008 RMK A01 T02560203  RH  073%=      5-min Rain = 0
KCR1 111302Z 11002KT 26/20 A3008 RMK A01 T02580203  RH  072%=      5-min Rain = 0
KCR1 111303Z 14002KT 26/20 A3008 RMK A01 T02580202  RH  071%=      5-min Rain = 0
KCR1 111304Z 14002KT 26/20 A3008 RMK A01 T02580203  RH  071%=      5-min Rain = 0
KCR1 111305Z 13002KT 26/20 A3008 RMK A01 T02580203  RH  071%=      5-min Rain = 0
KCR1 111306Z 13002KT 26/20 A3008 RMK A01 T02590203  RH  071%=      5-min Rain = 0
KCR1 111307Z 15002KT 26/20 A3008 RMK A01 T02600202  RH  070%=      5-min Rain = 0
KCR1 111308Z 15001KT 26/20 A3008 RMK A01 T02600202  RH  070%=      5-min Rain = 0
KCR1 111309Z 14002KT 26/20 A3008 RMK A01 T02600202  RH  070%=      5-min Rain = 0
KCR1 111310Z 14002KT 26/20 A3008 RMK A01 T02600202  RH  070%=      5-min Rain = 0
KCR1 111311Z 16002KT 26/20 A3008 RMK A01 T02600201  RH  070%=      5-min Rain = 0
KCR1 111312Z 14002KT 26/20 A3008 RMK A01 T02600202  RH  070%=      5-min Rain = 0
KCR1 111313Z 14001KT 26/20 A3008 RMK A01 T02600202  RH  071%=      5-min Rain = 0
KCR1 111314Z 15002KT 26/20 A3008 RMK A01 T02600202  RH  070%=      5-min Rain = 0
KCR1 111315Z 17001KT 26/20 A3008 RMK A01 T02610202  RH  070%=      5-min Rain = 0
KCR1 111316Z 15001KT 26/20 A3008 RMK A01 T02610202  RH  070%=      5-min Rain = 0
KCR1 111317Z 13002KT 26/20 A3008 RMK A01 T02620203  RH  070%=      5-min Rain = 0
KCR1 111318Z 15003KT 26/20 A3008 RMK A01 T02640203  RH  069%=      5-min Rain = 0
KCR1 111319Z 18003KT 27/20 A3008 RMK A01 T02650202  RH  068%=      5-min Rain = 0
KCR1 111320Z 20001KT 27/20 A3008 RMK A01 T02650202  RH  068%=      5-min Rain = 0
KCR1 111321Z 16002KT 27/20 A3008 RMK A01 T02650202  RH  068%=      5-min Rain = 0
KCR1 111322Z 17004KT 27/20 A3008 RMK A01 T02650202  RH  068%=      5-min Rain = 0
KCR1 111323Z 18002KT 26/20 A3008 RMK A01 T02640201  RH  068%=      5-min Rain = 0
KCR1 111324Z 16002KT 26/20 A3008 RMK A01 T02640201  RH  068%=      5-min Rain = 0
KCR1 111325Z 19003KT 26/20 A3008 RMK A01 T02640202  RH  069%=      5-min Rain = 0
KCR1 111326Z 20003KT 27/20 A3008 RMK A01 T02650202  RH  068%=      5-min Rain = 0
KCR1 111327Z 20005KT 26/20 A3008 RMK A01 T02640202  RH  069%=      5-min Rain = 0
KCR1 111328Z 21004KT 26/20 A3008 RMK A01 T02640202  RH  069%=      5-min Rain = 0
KCR1 111329Z 21003KT 26/20 A3008 RMK A01 T02630201  RH  069%=      5-min Rain = 0
KCR1 111330Z 20004KT 26/20 A3008 RMK A01 T02630202  RH  069%=      5-min Rain = 0
KCR1 111331Z 22002KT 26/20 A3008 RMK A01 T02630201  RH  069%=      5-min Rain = 0
KCR1 111332Z 20004KT 26/20 A3008 RMK A01 T02630202  RH  069%=      5-min Rain = 0
KCR1 111333Z 20003KT 26/20 A3008 RMK A01 T02620202  RH  069%=      5-min Rain = 0
KCR1 111334Z 20004KT 26/20 A3008 RMK A01 T02630202  RH  069%=      5-min Rain = 0
KCR1 111335Z 21003KT 26/20 A3008 RMK A01 T02630202  RH  069%=      5-min Rain = 0
KCR1 111336Z 21005KT 27/20 A3008 RMK A01 T02650202  RH  069%=      5-min Rain = 0
KCR1 111337Z 20004KT 27/20 A3008 RMK A01 T02660202  RH  068%=      5-min Rain = 0
KCR1 111338Z 21005KT 27/20 A3008 RMK A01 T02660202  RH  068%=      5-min Rain = 0
KCR1 111339Z 21005KT 27/20 A3008 RMK A01 T02670202  RH  068%=      5-min Rain = 0
KCR1 111340Z 22007KT 27/20 A3008 RMK A01 T02690200  RH  066%=      5-min Rain = 0
KCR1 111341Z 22006KT 27/20 A3008 RMK A01 T02690200  RH  066%=      5-min Rain = 0
KCR1 111342Z 22005KT 27/20 A3008 RMK A01 T02690201  RH  066%=      5-min Rain = 0
KCR1 111343Z 22006KT 27/20 A3008 RMK A01 T02700200  RH  066%=      5-min Rain = 0
KCR1 111344Z 23006KT 27/20 A3008 RMK A01 T02700199  RH  065%=      5-min Rain = 0
KCR1 111345Z 24005KT 27/20 A3008 RMK A01 T02700199  RH  065%=      5-min Rain = 0
KCR1 111346Z 24006KT 27/20 A3009 RMK A01 T02710200  RH  065%=      5-min Rain = 0
KCR1 111347Z 25006KT 27/20 A3009 RMK A01 T02710200  RH  065%=      5-min Rain = 0
KCR1 111348Z 26006KT 27/20 A3009 RMK A01 T02700200  RH  066%=      5-min Rain = 0
KCR1 111349Z 24005KT 27/20 A3009 RMK A01 T02710201  RH  066%=      5-min Rain = 0
KCR1 111350Z 23006KT 27/20 A3009 RMK A01 T02720200  RH  065%=      5-min Rain = 0
KCR1 111351Z 24007KT 27/20 A3009 RMK A01 T02740200  RH  064%=      5-min Rain = 0
KCR1 111352Z 24007KT 27/20 A3009 RMK A01 T02740199  RH  064%=      5-min Rain = 0
KCR1 111353Z 24005KT 27/20 A3009 RMK A01 T02740199  RH  064%=      5-min Rain = 0
KCR1 111354Z 25006KT 28/20 A3009 RMK A01 T02750199  RH  063%=      5-min Rain = 0
KCR1 111355Z 26006KT 28/20 A3009 RMK A01 T02750200  RH  064%=      5-min Rain = 0
KCR1 111356Z 24005KT 28/20 A3009 RMK A01 T02750201  RH  064%=      5-min Rain = 0
KCR1 111357Z 23006KT 28/20 A3009 RMK A01 T02760202  RH  064%=      5-min Rain = 0
KCR1 111358Z 23005KT 28/20 A3009 RMK A01 T02760202  RH  064%=      5-min Rain = 0
KCR1 111359Z 22005KT 28/20 A3009 RMK A01 T02760203  RH  064%=      5-min Rain = 0
KCR1 111400Z 23005KT 28/20 A3009 RMK A01 T02780201  RH  063%=      5-min Rain = 0
KCR1 111401Z 24005KT 28/20 A3009 RMK A01 T02810203  RH  063%=      5-min Rain = 0
KCR1 111402Z 24006KT 28/20 A3009 RMK A01 T02820202  RH  062%=      5-min Rain = 0
KCR1 111403Z 24006KT 28/20 A3009 RMK A01 T02820201  RH  061%=      5-min Rain = 0
KCR1 111404Z 24007KT 28/20 A3009 RMK A01 T02810200  RH  062%=      5-min Rain = 0
KCR1 111405Z 24006KT 28/20 A3009 RMK A01 T02790198  RH  062%=      5-min Rain = 0
KCR1 111406Z 24005KT 28/20 A3009 RMK A01 T02780198  RH  062%=      5-min Rain = 0
KCR1 111407Z 25005KT 28/20 A3009 RMK A01 T02770197  RH  062%=      5-min Rain = 0
KCR1 111408Z 22006KT 28/20 A3009 RMK A01 T02780198  RH  062%=      5-min Rain = 0
KCR1 111409Z 24006KT 28/20 A3009 RMK A01 T02800198  RH  061%=      5-min Rain = 0
KCR1 111410Z 24006KT 28/20 A3009 RMK A01 T02810197  RH  060%=      5-min Rain = 0
KCR1 111411Z 24006KT 28/20 A3009 RMK A01 T02800198  RH  061%=      5-min Rain = 0
KCR1 111412Z 23006KT 28/20 A3009 RMK A01 T02800199  RH  061%=      5-min Rain = 0
KCR1 111413Z 23006KT 28/20 A3009 RMK A01 T02800198  RH  061%=      5-min Rain = 0
KCR1 111414Z 21006KT 28/20 A3009 RMK A01 T02800198  RH  061%=      5-min Rain = 0
KCR1 111415Z 22005KT 28/20 A3009 RMK A01 T02790198  RH  061%=      5-min Rain = 0
KCR1 111416Z 23005KT 28/20 A3009 RMK A01 T02780198  RH  062%=      5-min Rain = 0
KCR1 111417Z 23004KT 28/20 A3009 RMK A01 T02790197  RH  061%=      5-min Rain = 0
KCR1 111418Z 22004KT 28/20 A3009 RMK A01 T02800198  RH  061%=      5-min Rain = 0
KCR1 111419Z 21005KT 28/20 A3009 RMK A01 T02830198  RH  060%=      5-min Rain = 0
KCR1 111420Z 22006KT 28/20 A3009 RMK A01 T02830198  RH  060%=      5-min Rain = 0
KCR1 111421Z 22004KT 28/20 A3009 RMK A01 T02820197  RH  060%=      5-min Rain = 0
KCR1 111422Z 24005KT 28/20 A3009 RMK A01 T02820198  RH  060%=      5-min Rain = 0
KCR1 111423Z 25006KT 28/20 A3009 RMK A01 T02830196  RH  059%=      5-min Rain = 0
KCR1 111424Z 25005KT 28/20 A3009 RMK A01 T02840196  RH  059%=      5-min Rain = 0
KCR1 111425Z 24005KT 28/20 A3009 RMK A01 T02830196  RH  059%=      5-min Rain = 0
KCR1 111426Z 24005KT 28/20 A3009 RMK A01 T02820197  RH  060%=      5-min Rain = 0
KCR1 111427Z 23005KT 28/20 A3009 RMK A01 T02820196  RH  060%=      5-min Rain = 0
KCR1 111428Z 23004KT 28/20 A3009 RMK A01 T02820196  RH  059%=      5-min Rain = 0
KCR1 111429Z 24004KT 28/20 A3009 RMK A01 T02820195  RH  059%=      5-min Rain = 0
KCR1 111430Z 23004KT 28/20 A3009 RMK A01 T02830195  RH  059%=      5-min Rain = 0
KCR1 111431Z 23004KT 28/19 A3009 RMK A01 T02830194  RH  059%=      5-min Rain = 0
KCR1 111432Z 22004KT 28/19 A3009 RMK A01 T02840194  RH  058%=      5-min Rain = 0
KCR1 111433Z 22003KT 29/19 A3009 RMK A01 T02850193  RH  057%=      5-min Rain = 0
KCR1 111434Z 21003KT 29/19 A3009 RMK A01 T02850193  RH  057%=      5-min Rain = 0
KCR1 111435Z 21003KT 29/19 A3009 RMK A01 T02850194  RH  058%=      5-min Rain = 0
KCR1 111436Z 20003KT 29/20 A3009 RMK A01 T02850196  RH  059%=      5-min Rain = 0
KCR1 111437Z 20003KT 29/20 A3009 RMK A01 T02870198  RH  059%=      5-min Rain = 0
KCR1 111438Z 20002KT 29/20 A3009 RMK A01 T02870197  RH  058%=      5-min Rain = 0
KCR1 111439Z 20002KT 29/20 A3009 RMK A01 T02890198  RH  058%=      5-min Rain = 0
KCR1 111440Z 18002KT 29/20 A3009 RMK A01 T02890196  RH  057%=      5-min Rain = 0
KCR1 111441Z 20005KT 29/20 A3009 RMK A01 T02910196  RH  057%=      5-min Rain = 0
KCR1 111442Z 21004KT 29/19 A3009 RMK A01 T02940194  RH  055%=      5-min Rain = 0
KCR1 111443Z 23003KT 29/19 A3009 RMK A01 T02940193  RH  054%=      5-min Rain = 0
KCR1 111444Z 22004KT 30/19 A3009 RMK A01 T02950193  RH  054%=      5-min Rain = 0
KCR1 111445Z 24002KT 30/19 A3009 RMK A01 T02960194  RH  055%=      5-min Rain = 0
KCR1 111446Z 23003KT 30/20 A3009 RMK A01 T02960195  RH  054%=      5-min Rain = 0
KCR1 111447Z 21003KT 30/20 A3009 RMK A01 T02970195  RH  054%=      5-min Rain = 0
KCR1 111448Z 21006KT 30/19 A3009 RMK A01 T02970194  RH  054%=      5-min Rain = 0
KCR1 111449Z 20005KT 30/19 A3009 RMK A01 T02970194  RH  054%=      5-min Rain = 0
KCR1 111450Z 20004KT 30/19 A3009 RMK A01 T02970193  RH  054%=      5-min Rain = 0
KCR1 111451Z 20005KT 30/19 A3009 RMK A01 T02960192  RH  054%=      5-min Rain = 0
KCR1 111452Z 20004KT 30/19 A3009 RMK A01 T02950192  RH  054%=      5-min Rain = 0
KCR1 111453Z 20003KT 29/19 A3009 RMK A01 T02940192  RH  054%=      5-min Rain = 0
KCR1 111454Z 20004KT 29/19 A3009 RMK A01 T02940192  RH  054%=      5-min Rain = 0
KCR1 111455Z 21004KT 30/19 A3009 RMK A01 T02960192  RH  054%=      5-min Rain = 0
KCR1 111456Z 22005KT 30/19 A3009 RMK A01 T02970193  RH  054%=      5-min Rain = 0
KCR1 111457Z 21003KT 30/19 A3009 RMK A01 T02980192  RH  053%=      5-min Rain = 0
KCR1 111458Z 21002KT 30/19 A3009 RMK A01 T02970192  RH  053%=      5-min Rain = 0
KCR1 111459Z 21002KT 30/19 A3009 RMK A01 T02970191  RH  053%=      5-min Rain = 0
KCR1 111500Z 23002KT 30/19 A3009 RMK A01 T02970191  RH  053%=      5-min Rain = 0
KCR1 111501Z 21004KT 30/19 A3009 RMK A01 T02980192  RH  053%=      5-min Rain = 0
KCR1 111502Z 22003KT 30/19 A3009 RMK A01 T02980192  RH  053%=      5-min Rain = 0
KCR1 111503Z 29003KT 30/19 A3009 RMK A01 T03000190  RH  052%=      5-min Rain = 0
KCR1 111504Z 27004KT 30/19 A3009 RMK A01 T03010189  RH  051%=      5-min Rain = 0
KCR1 111505Z 26004KT 30/19 A3009 RMK A01 T03010191  RH  052%=      5-min Rain = 0
KCR1 111506Z 25005KT 30/19 A3009 RMK A01 T03010192  RH  052%=      5-min Rain = 0
KCR1 111507Z 25005KT 30/19 A3009 RMK A01 T03010191  RH  052%=      5-min Rain = 0
KCR1 111508Z 21005KT 30/19 A3009 RMK A01 T03030193  RH  052%=      5-min Rain = 0
KCR1 111509Z 22003KT 30/19 A3009 RMK A01 T03030190  RH  051%=      5-min Rain = 0
KCR1 111510Z 22003KT 30/19 A3009 RMK A01 T03030190  RH  051%=      5-min Rain = 0
KCR1 111511Z 26004KT 31/19 A3009 RMK A01 T03050191  RH  051%=      5-min Rain = 0
KCR1 111512Z 26005KT 31/19 A3009 RMK A01 T03070188  RH  049%=      5-min Rain = 0
KCR1 111513Z 25004KT 31/19 A3009 RMK A01 T03090187  RH  048%=      5-min Rain = 0
KCR1 111514Z 24007KT 31/19 A3009 RMK A01 T03110189  RH  048%=      5-min Rain = 0
KCR1 111515Z 23008KT 32/19 A3009 RMK A01 T03160185  RH  046%=      5-min Rain = 0
KCR1 111516Z 22008KT 32/18 A3009 RMK A01 T03170183  RH  045%=      5-min Rain = 0
KCR1 111517Z 24008KT 32/18 A3009 RMK A01 T03180182  RH  044%=      5-min Rain = 0
KCR1 111518Z 24009KT 32/18 A3009 RMK A01 T03180182  RH  044%=      5-min Rain = 0
KCR1 111519Z 25007KT 32/18 A3009 RMK A01 T03180183  RH  044%=      5-min Rain = 0
KCR1 111520Z 25006KT 32/18 A3009 RMK A01 T03170183  RH  045%=      5-min Rain = 0
KCR1 111521Z 23011KT 32/18 A3009 RMK A01 T03150182  RH  045%=      5-min Rain = 0
KCR1 111522Z 24012KT 32/18 A3009 RMK A01 T03150183  RH  045%=      5-min Rain = 0
KCR1 111523Z 25009KT 32/18 A3009 RMK A01 T03150183  RH  045%=      5-min Rain = 0
KCR1 111524Z 25009KT 32/18 A3009 RMK A01 T03170184  RH  045%=      5-min Rain = 0
KCR1 111525Z 24009KT 32/18 A3009 RMK A01 T03190184  RH  045%=      5-min Rain = 0
KCR1 111526Z 26008KT 32/19 A3009 RMK A01 T03220185  RH  044%=      5-min Rain = 0
KCR1 111527Z 24008KT 32/18 A3009 RMK A01 T03220184  RH  044%=      5-min Rain = 0
KCR1 111528Z 24009KT 32/18 A3009 RMK A01 T03210184  RH  044%=      5-min Rain = 0
KCR1 111529Z 26007KT 32/18 A3009 RMK A01 T03210184  RH  044%=      5-min Rain = 0
KCR1 111530Z 27007KT 32/19 A3009 RMK A01 T03210186  RH  045%=      5-min Rain = 0
KCR1 111531Z 27008KT 32/19 A3009 RMK A01 T03210187  RH  045%=      5-min Rain = 0
KCR1 111532Z 26007KT 32/19 A3009 RMK A01 T03220185  RH  044%=      5-min Rain = 0
KCR1 111533Z 28005KT 32/19 A3009 RMK A01 T03180185  RH  045%=      5-min Rain = 0
KCR1 111534Z 28008KT 32/19 A3008 RMK A01 T03190185  RH  045%=      5-min Rain = 0
KCR1 111535Z 27010KT 32/18 A3008 RMK A01 T03210183  RH  044%=      5-min Rain = 0
KCR1 111536Z 28008KT 32/18 A3008 RMK A01 T03190182  RH  044%=      5-min Rain = 0
KCR1 111537Z 27008KT 32/18 A3008 RMK A01 T03190184  RH  045%=      5-min Rain = 0
KCR1 111538Z 27006KT 32/18 A3008 RMK A01 T03210183  RH  044%=      5-min Rain = 0
KCR1 111539Z 28007KT 32/18 A3008 RMK A01 T03210184  RH  044%=      5-min Rain = 0
KCR1 111540Z 28008KT 32/19 A3008 RMK A01 T03220185  RH  044%=      5-min Rain = 0
KCR1 111541Z 26010KT 32/19 A3008 RMK A01 T03230186  RH  044%=      5-min Rain = 0
KCR1 111542Z 26008KT 32/19 A3008 RMK A01 T03240185  RH  044%=      5-min Rain = 0
KCR1 111543Z 25008KT 32/19 A3008 RMK A01 T03230186  RH  044%=      5-min Rain = 0
KCR1 111544Z 25007KT 32/19 A3008 RMK A01 T03220186  RH  045%=      5-min Rain = 0
KCR1 111545Z 25005KT 32/19 A3008 RMK A01 T03210186  RH  045%=      5-min Rain = 0
KCR1 111546Z 24007KT 32/19 A3008 RMK A01 T03220186  RH  044%=      5-min Rain = 0
KCR1 111547Z 24007KT 32/19 A3008 RMK A01 T03210185  RH  045%=      5-min Rain = 0
KCR1 111548Z 25007KT 32/19 A3008 RMK A01 T03200185  RH  045%=      5-min Rain = 0
KCR1 111549Z 25007KT 32/19 A3008 RMK A01 T03190185  RH  045%=      5-min Rain = 0
KCR1 111550Z 25006KT 32/19 A3008 RMK A01 T03190186  RH  045%=      5-min Rain = 0
KCR1 111551Z 26006KT 32/19 A3008 RMK A01 T03200186  RH  045%=      5-min Rain = 0
KCR1 111552Z 26008KT 32/19 A3008 RMK A01 T03220186  RH  044%=      5-min Rain = 0
KCR1 111553Z 27008KT 32/19 A3008 RMK A01 T03230186  RH  044%=      5-min Rain = 0
KCR1 111554Z 27009KT 33/19 A3008 RMK A01 T03250187  RH  044%=      5-min Rain = 0
KCR1 111555Z 27008KT 33/19 A3008 RMK A01 T03270186  RH  043%=      5-min Rain = 0
KCR1 111556Z 27009KT 33/19 A3008 RMK A01 T03260185  RH  043%=      5-min Rain = 0
KCR1 111557Z 27007KT 33/19 A3008 RMK A01 T03260186  RH  043%=      5-min Rain = 0
KCR1 111558Z 25005KT 33/19 A3008 RMK A01 T03280188  RH  043%=      5-min Rain = 0
KCR1 111559Z 24004KT 33/19 A3008 RMK A01 T03320185  RH  042%=      5-min Rain = 0
KCR1 111600Z 24003KT 33/19 A3008 RMK A01 T03330186  RH  042%=      5-min Rain = 0
KCR1 111601Z 21008KT 34/19 A3008 RMK A01 T03360185  RH  041%=      5-min Rain = 0
KCR1 111602Z 21008KT 34/18 A3008 RMK A01 T03350183  RH  041%=      5-min Rain = 0
KCR1 111603Z 21007KT 33/18 A3008 RMK A01 T03340182  RH  041%=      5-min Rain = 0
KCR1 111604Z 22006KT 33/18 A3008 RMK A01 T03340182  RH  041%=      5-min Rain = 0
KCR1 111605Z 21004KT 33/18 A3008 RMK A01 T03310182  RH  041%=      5-min Rain = 0
KCR1 111606Z 21002KT 33/18 A3008 RMK A01 T03280182  RH  042%=      5-min Rain = 0
KCR1 111607Z 23004KT 33/18 A3008 RMK A01 T03270183  RH  042%=      5-min Rain = 0
KCR1 111608Z 26005KT 33/18 A3008 RMK A01 T03330184  RH  041%=      5-min Rain = 0
KCR1 111609Z 25007KT 34/18 A3008 RMK A01 T03370184  RH  040%=      5-min Rain = 0
KCR1 111610Z 24006KT 34/18 A3008 RMK A01 T03370181  RH  040%=      5-min Rain = 0
KCR1 111611Z 28005KT 34/18 A3008 RMK A01 T03360183  RH  040%=      5-min Rain = 0
KCR1 111612Z 28007KT 34/18 A3008 RMK A01 T03370182  RH  040%=      5-min Rain = 0
KCR1 111613Z 27008KT 34/18 A3008 RMK A01 T03350182  RH  040%=      5-min Rain = 0
KCR1 111614Z 23010KT 34/18 A3008 RMK A01 T03370179  RH  039%=      5-min Rain = 0
KCR1 111615Z 22010KT 34/18 A3008 RMK A01 T03380178  RH  039%=      5-min Rain = 0
KCR1 111616Z 25009KT 34/18 A3008 RMK A01 T03410181  RH  039%=      5-min Rain = 0
KCR1 111617Z 27008KT 34/18 A3008 RMK A01 T03420180  RH  038%=      5-min Rain = 0
KCR1 111618Z 28006KT 34/18 A3008 RMK A01 T03420178  RH  038%=      5-min Rain = 0
KCR1 111619Z 26006KT 34/18 A3008 RMK A01 T03400177  RH  038%=      5-min Rain = 0
KCR1 111620Z 26006KT 34/18 A3008 RMK A01 T03400176  RH  038%=      5-min Rain = 0
KCR1 111621Z 24008KT 34/18 A3008 RMK A01 T03400177  RH  038%=      5-min Rain = 0
KCR1 111622Z 25008KT 35/18 A3008 RMK A01 T03450178  RH  037%=      5-min Rain = 0
KCR1 111623Z 26008KT 35/18 A3008 RMK A01 T03450176  RH  037%=      5-min Rain = 0
KCR1 111624Z 26006KT 34/18 A3007 RMK A01 T03410178  RH  038%=      5-min Rain = 0
KCR1 111625Z 26005KT 34/18 A3007 RMK A01 T03390178  RH  038%=      5-min Rain = 0
KCR1 111626Z 29003KT 34/18 A3007 RMK A01 T03410178  RH  038%=      5-min Rain = 0
KCR1 111627Z 27002KT 34/18 A3007 RMK A01 T03420177  RH  038%=      5-min Rain = 0
KCR1 111628Z 26007KT 34/18 A3007 RMK A01 T03420178  RH  038%=      5-min Rain = 0
KCR1 111629Z 26009KT 34/18 A3007 RMK A01 T03400176  RH  038%=      5-min Rain = 0
KCR1 111630Z 27007KT 34/18 A3007 RMK A01 T03380175  RH  038%=      5-min Rain = 0
KCR1 111631Z 27005KT 34/17 A3007 RMK A01 T03370174  RH  038%=      5-min Rain = 0
KCR1 111632Z 26005KT 34/17 A3007 RMK A01 T03360172  RH  038%=      5-min Rain = 0
KCR1 111633Z 25008KT 34/18 A3007 RMK A01 T03370175  RH  038%=      5-min Rain = 0
KCR1 111634Z 25007KT 34/17 A3007 RMK A01 T03390173  RH  037%=      5-min Rain = 0
KCR1 111635Z 25008KT 34/17 A3007 RMK A01 T03370174  RH  038%=      5-min Rain = 0
KCR1 111636Z 25008KT 34/18 A3007 RMK A01 T03370176  RH  038%=      5-min Rain = 0
KCR1 111637Z 25008KT 34/18 A3007 RMK A01 T03380176  RH  038%=      5-min Rain = 0
KCR1 111638Z 27006KT 34/18 A3007 RMK A01 T03380175  RH  038%=      5-min Rain = 0
KCR1 111639Z 31002KT 34/17 A3007 RMK A01 T03370174  RH  038%=      5-min Rain = 0
KCR1 111640Z 22003KT 34/17 A3007 RMK A01 T03360174  RH  038%=      5-min Rain = 0
KCR1 111641Z 23006G11KT 34/18 A3007 RMK A01 T03380176  RH  038%=      5-min Rain = 0
KCR1 111642Z 24007KT 35/18 A3007 RMK A01 T03450176  RH  037%=      5-min Rain = 0
KCR1 111643Z 24005KT 35/17 A3007 RMK A01 T03450173  RH  036%=      5-min Rain = 0
KCR1 111644Z 23004KT 34/17 A3007 RMK A01 T03430174  RH  037%=      5-min Rain = 0
KCR1 111645Z 22002KT 34/17 A3007 RMK A01 T03420172  RH  037%=      5-min Rain = 0
KCR1 111646Z 24004KT 34/17 A3007 RMK A01 T03420174  RH  037%=      5-min Rain = 0
KCR1 111647Z 25004KT 34/17 A3007 RMK A01 T03420171  RH  036%=      5-min Rain = 0
KCR1 111648Z 24009KT 34/17 A3007 RMK A01 T03420171  RH  036%=      5-min Rain = 0
KCR1 111649Z 24007KT 34/17 A3007 RMK A01 T03430171  RH  036%=      5-min Rain = 0
KCR1 111650Z 25004KT 34/17 A3007 RMK A01 T03410165  RH  035%=      5-min Rain = 0
KCR1 111651Z 24004KT 34/17 A3007 RMK A01 T03400166  RH  035%=      5-min Rain = 0
KCR1 111652Z 24005KT 34/17 A3007 RMK A01 T03410173  RH  037%=      5-min Rain = 0
KCR1 111653Z 25006KT 35/17 A3007 RMK A01 T03460172  RH  036%=      5-min Rain = 0
KCR1 111654Z 24007KT 35/17 A3007 RMK A01 T03460170  RH  035%=      5-min Rain = 0
KCR1 111655Z 23004KT 35/17 A3007 RMK A01 T03450171  RH  036%=      5-min Rain = 0
KCR1 111656Z 23003KT 35/17 A3007 RMK A01 T03450171  RH  036%=      5-min Rain = 0
KCR1 111657Z 21003KT 34/17 A3007 RMK A01 T03440170  RH  036%=      5-min Rain = 0
KCR1 111658Z 24003KT 35/17 A3007 RMK A01 T03450172  RH  036%=      5-min Rain = 0
KCR1 111659Z 21003KT 35/17 A3006 RMK A01 T03450172  RH  036%=      5-min Rain = 0
KCR1 111700Z 18002KT 35/17 A3006 RMK A01 T03450171  RH  035%=      5-min Rain = 0
KCR1 111701Z 15002KT 35/17 A3006 RMK A01 T03450171  RH  036%=      5-min Rain = 0
KCR1 111702Z 24001KT 34/17 A3006 RMK A01 T03440171  RH  036%=      5-min Rain = 0
KCR1 111703Z 25005KT 35/17 A3006 RMK A01 T03450170  RH  035%=      5-min Rain = 0
KCR1 111704Z 25007KT 35/17 A3006 RMK A01 T03450168  RH  035%=      5-min Rain = 0
KCR1 111705Z 23003KT 34/17 A3006 RMK A01 T03440167  RH  035%=      5-min Rain = 0
KCR1 111706Z 26006KT 35/17 A3006 RMK A01 T03450167  RH  035%=      5-min Rain = 0
KCR1 111707Z 24007KT 35/17 A3006 RMK A01 T03470169  RH  035%=      5-min Rain = 0
KCR1 111708Z 23007KT 35/17 A3007 RMK A01 T03480168  RH  034%=      5-min Rain = 0
KCR1 111709Z 21003KT 35/17 A3006 RMK A01 T03470168  RH  034%=      5-min Rain = 0
KCR1 111710Z 21006KT 35/17 A3006 RMK A01 T03470166  RH  034%=      5-min Rain = 0
KCR1 111711Z 22006KT 35/16 A3006 RMK A01 T03470164  RH  034%=      5-min Rain = 0
KCR1 111712Z 22004KT 35/17 A3006 RMK A01 T03460169  RH  035%=      5-min Rain = 0
KCR1 111713Z 21004KT 34/17 A3006 RMK A01 T03440167  RH  035%=      5-min Rain = 0
KCR1 111714Z 23003KT 34/17 A3006 RMK A01 T03400166  RH  035%=      5-min Rain = 0
KCR1 111715Z 25001KT 34/17 A3006 RMK A01 T03390167  RH  036%=      5-min Rain = 0
KCR1 111716Z 25001KT 34/17 A3006 RMK A01 T03410169  RH  036%=      5-min Rain = 0
KCR1 111717Z 26002KT 35/17 A3006 RMK A01 T03450170  RH  035%=      5-min Rain = 0
KCR1 111718Z 19004KT 35/17 A3006 RMK A01 T03500171  RH  035%=      5-min Rain = 0
KCR1 111719Z 20002KT 35/17 A3006 RMK A01 T03500168  RH  034%=      5-min Rain = 0
KCR1 111720Z 19001KT 35/17 A3006 RMK A01 T03470168  RH  035%=      5-min Rain = 0
KCR1 111721Z 28004KT 35/17 A3006 RMK A01 T03490170  RH  035%=      5-min Rain = 0
KCR1 111722Z 25005KT 35/17 A3006 RMK A01 T03540167  RH  033%=      5-min Rain = 0
KCR1 111723Z 25002KT 35/16 A3006 RMK A01 T03510162  RH  033%=      5-min Rain = 0
KCR1 111724Z 22005KT 35/17 A3006 RMK A01 T03500165  RH  033%=      5-min Rain = 0
KCR1 111725Z 26005KT 35/17 A3006 RMK A01 T03520166  RH  033%=      5-min Rain = 0
KCR1 111726Z 25007KT 35/16 A3006 RMK A01 T03520164  RH  033%=      5-min Rain = 0
KCR1 111727Z 23005KT 35/16 A3006 RMK A01 T03520161  RH  032%=      5-min Rain = 0
KCR1 111728Z 27005KT 35/16 A3006 RMK A01 T03520162  RH  032%=      5-min Rain = 0
KCR1 111729Z 27007KT 36/17 A3006 RMK A01 T03560166  RH  032%=      5-min Rain = 0
KCR1 111730Z 27005KT 36/17 A3006 RMK A01 T03550165  RH  032%=      5-min Rain = 0
KCR1 111731Z 25004KT 36/16 A3006 RMK A01 T03550164  RH  032%=      5-min Rain = 0
KCR1 111732Z 20007KT 36/16 A3006 RMK A01 T03560163  RH  032%=      5-min Rain = 0
KCR1 111733Z 21006KT 36/16 A3006 RMK A01 T03570158  RH  031%=      5-min Rain = 0
KCR1 111734Z 23006KT 35/16 A3006 RMK A01 T03540157  RH  031%=      5-min Rain = 0
KCR1 111735Z 26007KT 35/16 A3006 RMK A01 T03510155  RH  031%=      5-min Rain = 0
KCR1 111736Z 25007KT 35/16 A3005 RMK A01 T03510155  RH  031%=      5-min Rain = 0
KCR1 111737Z 24006KT 35/16 A3005 RMK A01 T03520155  RH  031%=      5-min Rain = 0
KCR1 111738Z 23007KT 36/16 A3005 RMK A01 T03560155  RH  030%=      5-min Rain = 0
KCR1 111739Z 25007KT 36/15 A3005 RMK A01 T03590154  RH  030%=      5-min Rain = 0
KCR1 111740Z 25004KT 36/15 A3005 RMK A01 T03580153  RH  030%=      5-min Rain = 0
KCR1 111741Z 24005KT 36/15 A3005 RMK A01 T03550153  RH  030%=      5-min Rain = 0
KCR1 111742Z 23006KT 36/16 A3005 RMK A01 T03550155  RH  030%=      5-min Rain = 0
KCR1 111743Z 25005KT 36/16 A3005 RMK A01 T03550155  RH  030%=      5-min Rain = 0
KCR1 111744Z 26005KT 36/16 A3005 RMK A01 T03550155  RH  030%=      5-min Rain = 0
KCR1 111745Z 23004KT 36/16 A3005 RMK A01 T03560155  RH  030%=      5-min Rain = 0
KCR1 111746Z 19002KT 36/16 A3005 RMK A01 T03560155  RH  030%=      5-min Rain = 0
KCR1 111747Z 18002KT 36/16 A3005 RMK A01 T03560155  RH  030%=      5-min Rain = 0
KCR1 111748Z 23002KT 36/16 A3005 RMK A01 T03590156  RH  030%=      5-min Rain = 0
KCR1 111749Z 22005G10KT 36/16 A3005 RMK A01 T03630159  RH  030%=      5-min Rain = 0
KCR1 111750Z 20009KT 37/16 A3005 RMK A01 T03650155  RH  029%=      5-min Rain = 0
KCR1 111751Z 19007KT 36/16 A3005 RMK A01 T03630155  RH  029%=      5-min Rain = 0
KCR1 111752Z 22004KT 36/15 A3005 RMK A01 T03590149  RH  029%=      5-min Rain = 0
KCR1 111753Z 17006KT 36/15 A3005 RMK A01 T03580152  RH  029%=      5-min Rain = 0
KCR1 111754Z 20008KT 36/15 A3005 RMK A01 T03610153  RH  029%=      5-min Rain = 0
KCR1 111755Z 21005KT 36/15 A3005 RMK A01 T03640154  RH  029%=      5-min Rain = 0
KCR1 111756Z 23007KT 36/15 A3005 RMK A01 T03630152  RH  029%=      5-min Rain = 0
KCR1 111757Z 21006KT 36/15 A3005 RMK A01 T03590153  RH  029%=      5-min Rain = 0
KCR1 111758Z 16008KT 36/14 A3005 RMK A01 T03580143  RH  028%=      5-min Rain = 0
KCR1 111759Z 16008KT 36/15 A3005 RMK A01 T03590148  RH  029%=      5-min Rain = 0
KCR1 111800Z 14003KT 36/16 A3005 RMK A01 T03570155  RH  030%=      5-min Rain = 0
KCR1 111801Z 12005KT 36/15 A3005 RMK A01 T03570152  RH  030%=      5-min Rain = 0
KCR1 111802Z 13003KT 36/15 A3005 RMK A01 T03590150  RH  029%=      5-min Rain = 0
KCR1 111803Z 13003KT 36/15 A3005 RMK A01 T03590153  RH  029%=      5-min Rain = 0
KCR1 111804Z 15003KT 36/15 A3005 RMK A01 T03620153  RH  029%=      5-min Rain = 0
KCR1 111805Z 10002KT 36/15 A3005 RMK A01 T03600150  RH  029%=      5-min Rain = 0
KCR1 111806Z 10003KT 36/15 A3005 RMK A01 T03600145  RH  028%=      5-min Rain = 0
KCR1 111807Z 09003KT 36/14 A3005 RMK A01 T03590142  RH  027%=      5-min Rain = 0
KCR1 111808Z 10004KT 36/14 A3005 RMK A01 T03580141  RH  027%=      5-min Rain = 0
KCR1 111809Z 09005KT 36/14 A3004 RMK A01 T03590137  RH  027%=      5-min Rain = 0
KCR1 111810Z 15007KT 36/15 A3004 RMK A01 T03610145  RH  028%=      5-min Rain = 0
KCR1 111811Z 13006KT 36/15 A3004 RMK A01 T03640145  RH  027%=      5-min Rain = 0
KCR1 111812Z 13006KT 37/14 A3004 RMK A01 T03680144  RH  026%=      5-min Rain = 0
KCR1 111813Z 15010KT 37/14 A3004 RMK A01 T03720144  RH  026%=      5-min Rain = 0
KCR1 111814Z 16009KT 38/14 A3004 RMK A01 T03750140  RH  025%=      5-min Rain = 0
KCR1 111815Z 17009KT 37/14 A3004 RMK A01 T03730143  RH  026%=      5-min Rain = 0
KCR1 111816Z 17008KT 37/14 A3004 RMK A01 T03680142  RH  026%=      5-min Rain = 0
KCR1 111817Z 15006KT 36/14 A3004 RMK A01 T03630141  RH  027%=      5-min Rain = 0
KCR1 111818Z 12007KT 36/14 A3004 RMK A01 T03640141  RH  026%=      5-min Rain = 0
KCR1 111819Z 11007KT 37/14 A3004 RMK A01 T03660141  RH  026%=      5-min Rain = 0
KCR1 111820Z 13003KT 37/14 A3004 RMK A01 T03670140  RH  026%=      5-min Rain = 0
KCR1 111821Z 12003KT 37/14 A3004 RMK A01 T03660141  RH  026%=      5-min Rain = 0
KCR1 111822Z 14003G9KT 37/14 A3004 RMK A01 T03670140  RH  026%=      5-min Rain = 0
KCR1 111823Z 16008KT 37/15 A3004 RMK A01 T03700146  RH  026%=      5-min Rain = 0
KCR1 111824Z 14007KT 37/15 A3004 RMK A01 T03710145  RH  026%=      5-min Rain = 0
KCR1 111825Z 16008KT 37/15 A3004 RMK A01 T03700145  RH  026%=      5-min Rain = 0
KCR1 111826Z 16011KT 37/14 A3004 RMK A01 T03710143  RH  026%=      5-min Rain = 0
KCR1 111827Z 16011KT 37/14 A3004 RMK A01 T03740144  RH  026%=      5-min Rain = 0
KCR1 111828Z 19012KT 37/15 A3004 RMK A01 T03730146  RH  026%=      5-min Rain = 0
KCR1 111829Z 18011KT 37/15 A3004 RMK A01 T03680145  RH  027%=      5-min Rain = 0
KCR1 111830Z 17010KT 37/15 A3004 RMK A01 T03660146  RH  027%=      5-min Rain = 0
KCR1 111831Z 17007KT 37/15 A3004 RMK A01 T03670148  RH  027%=      5-min Rain = 0
KCR1 111832Z 16005KT 37/15 A3004 RMK A01 T03700148  RH  027%=      5-min Rain = 0
KCR1 111833Z 17006KT 37/15 A3004 RMK A01 T03700148  RH  027%=      5-min Rain = 0
KCR1 111834Z 18005KT 37/14 A3004 RMK A01 T03690144  RH  026%=      5-min Rain = 0
KCR1 111835Z 20003KT 36/14 A3004 RMK A01 T03640142  RH  027%=      5-min Rain = 0
KCR1 111836Z 16003KT 36/15 A3004 RMK A01 T03620145  RH  028%=      5-min Rain = 0
KCR1 111837Z 20004KT 36/15 A3004 RMK A01 T03640151  RH  028%=      5-min Rain = 0
KCR1 111838Z 19009KT 37/15 A3004 RMK A01 T03680154  RH  028%=      5-min Rain = 0
KCR1 111839Z 19012KT 37/16 A3004 RMK A01 T03710155  RH  028%=      5-min Rain = 0
KCR1 111840Z 19009KT 37/16 A3004 RMK A01 T03700155  RH  028%=      5-min Rain = 0
KCR1 111841Z 20006KT 37/15 A3004 RMK A01 T03690154  RH  028%=      5-min Rain = 0
KCR1 111842Z 16006KT 37/16 A3004 RMK A01 T03660155  RH  029%=      5-min Rain = 0
KCR1 111843Z 18002KT 36/15 A3004 RMK A01 T03640153  RH  029%=      5-min Rain = 0
KCR1 111844Z 12002KT 36/15 A3003 RMK A01 T03620154  RH  029%=      5-min Rain = 0
KCR1 111845Z 18009KT 36/16 A3003 RMK A01 T03620156  RH  030%=      5-min Rain = 0
KCR1 111846Z 18014G19KT 36/16 A3003 RMK A01 T03640158  RH  029%=      5-min Rain = 0
KCR1 111847Z 20011KT 37/16 A3004 RMK A01 T03680156  RH  029%=      5-min Rain = 0
KCR1 111848Z 21009KT 37/16 A3004 RMK A01 T03670157  RH  029%=      5-min Rain = 0
KCR1 111849Z 22009KT 37/16 A3004 RMK A01 T03660157  RH  029%=      5-min Rain = 0
KCR1 111850Z 21008G13KT 37/16 A3004 RMK A01 T03650156  RH  029%=      5-min Rain = 0
KCR1 111851Z 20009KT 36/16 A3004 RMK A01 T03630158  RH  030%=      5-min Rain = 0
KCR1 111852Z 18010KT 37/16 A3003 RMK A01 T03670157  RH  029%=      5-min Rain = 0
KCR1 111853Z 16006KT 37/16 A3004 RMK A01 T03680156  RH  029%=      5-min Rain = 0
KCR1 111854Z 13004KT 37/16 A3003 RMK A01 T03660156  RH  029%=      5-min Rain = 0
KCR1 111855Z 18006KT 37/16 A3003 RMK A01 T03650157  RH  029%=      5-min Rain = 0
KCR1 111856Z 12005KT 36/16 A3003 RMK A01 T03630156  RH  029%=      5-min Rain = 0
KCR1 111857Z 09003KT 36/16 A3003 RMK A01 T03630157  RH  029%=      5-min Rain = 0
KCR1 111858Z 24004KT 36/16 A3003 RMK A01 T03640157  RH  029%=      5-min Rain = 0
KCR1 111859Z 30001KT 36/16 A3003 RMK A01 T03620156  RH  030%=      5-min Rain = 0
KCR1 111900Z 15004KT 36/16 A3003 RMK A01 T03600157  RH  030%=      5-min Rain = 0
KCR1 111901Z 13010KT 36/16 A3003 RMK A01 T03610159  RH  030%=      5-min Rain = 0
KCR1 111902Z 13006KT 36/16 A3003 RMK A01 T03630158  RH  030%=      5-min Rain = 0
KCR1 111903Z 14005KT 36/16 A3002 RMK A01 T03610160  RH  030%=      5-min Rain = 0
KCR1 111904Z 13006KT 37/16 A3002 RMK A01 T03650161  RH  030%=      5-min Rain = 0
KCR1 111905Z 15010KT 37/16 A3002 RMK A01 T03710162  RH  029%=      5-min Rain = 0
KCR1 111906Z 17008KT 37/16 A3002 RMK A01 T03720156  RH  028%=      5-min Rain = 0
KCR1 111907Z 16005KT 37/16 A3002 RMK A01 T03690157  RH  029%=      5-min Rain = 0
KCR1 111908Z 18004KT 37/16 A3002 RMK A01 T03690155  RH  028%=      5-min Rain = 0
KCR1 111909Z 17005KT 37/16 A3002 RMK A01 T03670156  RH  029%=      5-min Rain = 0
KCR1 111910Z 13005KT 37/16 A3002 RMK A01 T03660157  RH  029%=      5-min Rain = 0
KCR1 111911Z 18007KT 37/16 A3002 RMK A01 T03680157  RH  029%=      5-min Rain = 0
KCR1 111912Z 20009KT 37/16 A3002 RMK A01 T03690156  RH  028%=      5-min Rain = 0
KCR1 111913Z 20009KT 37/16 A3002 RMK A01 T03670155  RH  028%=      5-min Rain = 0
KCR1 111914Z 19011KT 37/16 A3002 RMK A01 T03730157  RH  028%=      5-min Rain = 0
KCR1 111915Z 19010KT 38/15 A3002 RMK A01 T03760154  RH  027%=      5-min Rain = 0
KCR1 111916Z 19005KT 38/15 A3002 RMK A01 T03750154  RH  027%=      5-min Rain = 0
KCR1 111917Z 18005KT 37/15 A3002 RMK A01 T03730153  RH  027%=      5-min Rain = 0
KCR1 111918Z 21008KT 37/16 A3002 RMK A01 T03710155  RH  028%=      5-min Rain = 0
KCR1 111919Z 22009KT 37/16 A3002 RMK A01 T03700155  RH  028%=      5-min Rain = 0
KCR1 111920Z 21011KT 37/16 A3002 RMK A01 T03710155  RH  028%=      5-min Rain = 0
KCR1 111921Z 19012KT 37/16 A3002 RMK A01 T03710155  RH  028%=      5-min Rain = 0
KCR1 111922Z 22009KT 37/16 A3002 RMK A01 T03720155  RH  028%=      5-min Rain = 0
KCR1 111923Z 22010KT 37/16 A3002 RMK A01 T03730155  RH  028%=      5-min Rain = 0
KCR1 111924Z 18010KT 38/16 A3002 RMK A01 T03760157  RH  027%=      5-min Rain = 0
KCR1 111925Z 20009KT 38/16 A3001 RMK A01 T03770156  RH  027%=      5-min Rain = 0
KCR1 111926Z 20011KT 38/16 A3001 RMK A01 T03760157  RH  027%=      5-min Rain = 0
KCR1 111927Z 20014KT 38/16 A3001 RMK A01 T03780157  RH  027%=      5-min Rain = 0
KCR1 111928Z 20009KT 38/16 A3001 RMK A01 T03770156  RH  027%=      5-min Rain = 0
KCR1 111929Z 21009KT 38/16 A3001 RMK A01 T03750156  RH  027%=      5-min Rain = 0
KCR1 111930Z 21006KT 38/16 A3001 RMK A01 T03760155  RH  027%=      5-min Rain = 0
KCR1 111931Z 17006KT 38/15 A3001 RMK A01 T03760154  RH  027%=      5-min Rain = 0
KCR1 111932Z 16004KT 37/15 A3001 RMK A01 T03740152  RH  027%=      5-min Rain = 0
KCR1 111933Z 18007G13KT 37/15 A3001 RMK A01 T03730154  RH  027%=      5-min Rain = 0
KCR1 111934Z 19013KT 38/15 A3001 RMK A01 T03750150  RH  026%=      5-min Rain = 0
KCR1 111935Z 19011KT 38/15 A3001 RMK A01 T03770148  RH  026%=      5-min Rain = 0
KCR1 111936Z 21013KT 38/15 A3001 RMK A01 T03770151  RH  026%=      5-min Rain = 0
KCR1 111937Z 20010KT 38/15 A3001 RMK A01 T03770152  RH  026%=      5-min Rain = 0
KCR1 111938Z 20011KT 38/15 A3001 RMK A01 T03770152  RH  026%=      5-min Rain = 0
KCR1 111939Z 17008KT 38/15 A3001 RMK A01 T03780154  RH  027%=      5-min Rain = 0
KCR1 111940Z 16006KT 38/15 A3001 RMK A01 T03800152  RH  026%=      5-min Rain = 0
KCR1 111941Z 17009KT 38/15 A3001 RMK A01 T03800153  RH  026%=      5-min Rain = 0
KCR1 111942Z 18009KT 38/15 A3001 RMK A01 T03810153  RH  026%=      5-min Rain = 0
KCR1 111943Z 20012KT 38/15 A3001 RMK A01 T03830153  RH  026%=      5-min Rain = 0
KCR1 111944Z 21008KT 38/15 A3001 RMK A01 T03780150  RH  026%=      5-min Rain = 0
KCR1 111945Z 19011KT 38/15 A3001 RMK A01 T03750151  RH  027%=      5-min Rain = 0
KCR1 111946Z 18008KT 37/15 A3001 RMK A01 T03720149  RH  027%=      5-min Rain = 0
KCR1 111947Z 19013KT 37/15 A30 RMK A01 T03720151  RH  027%=      5-min Rain = 0
KCR1 111948Z 17012KT 38/15 A30 RMK A01 T03770149  RH  026%=      5-min Rain = 0
KCR1 111949Z 19013KT 38/15 A30 RMK A01 T03790152  RH  026%=      5-min Rain = 0
KCR1 111950Z 19013KT 38/15 A30 RMK A01 T03820149  RH  025%=      5-min Rain = 0
KCR1 111951Z 19010KT 38/15 A30 RMK A01 T03750148  RH  026%=      5-min Rain = 0
KCR1 111952Z 19008KT 37/15 A30 RMK A01 T03720147  RH  026%=      5-min Rain = 0
KCR1 111953Z 17007KT 37/15 A30 RMK A01 T03740150  RH  026%=      5-min Rain = 0
KCR1 111954Z 18006KT 38/15 A30 RMK A01 T03770149  RH  026%=      5-min Rain = 0
KCR1 111955Z 18005KT 38/15 A30 RMK A01 T03790149  RH  026%=      5-min Rain = 0
KCR1 111956Z 16005KT 38/15 A30 RMK A01 T03760147  RH  026%=      5-min Rain = 0
KCR1 111957Z 16006KT 37/15 A30 RMK A01 T03730148  RH  026%=      5-min Rain = 0
KCR1 111958Z 14007KT 37/15 A30 RMK A01 T03710149  RH  027%=      5-min Rain = 0
KCR1 111959Z 13007KT 37/15 A30 RMK A01 T03710150  RH  027%=      5-min Rain = 0
KCR1 112000Z 14009KT 37/15 A30 RMK A01 T03700150  RH  027%=      5-min Rain = 0
KCR1 112001Z 12009KT 37/15 A30 RMK A01 T03670149  RH  027%=      5-min Rain = 0
KCR1 112002Z 11008KT 37/15 A30 RMK A01 T03650149  RH  028%=      5-min Rain = 0
KCR1 112003Z 11007KT 36/15 A30 RMK A01 T03630150  RH  028%=      5-min Rain = 0
KCR1 112004Z 15010G17KT 37/15 A30 RMK A01 T03650152  RH  028%=      5-min Rain = 0
KCR1 112005Z 17014KT 37/15 A30 RMK A01 T03680153  RH  028%=      5-min Rain = 0
KCR1 112006Z 18012KT 37/15 A30 RMK A01 T03700152  RH  027%=      5-min Rain = 0
KCR1 112007Z 16010KT 37/15 A30 RMK A01 T03680151  RH  028%=      5-min Rain = 0
KCR1 112008Z 14011KT 37/15 A30 RMK A01 T03660151  RH  028%=      5-min Rain = 0
KCR1 112009Z 15008KT 37/15 A30 RMK A01 T03650150  RH  028%=      5-min Rain = 0
KCR1 112010Z 14007KT 36/15 A30 RMK A01 T03630150  RH  028%=      5-min Rain = 0
KCR1 112011Z 15006KT 36/15 A30 RMK A01 T03610150  RH  028%=      5-min Rain = 0
KCR1 112012Z 18008KT 36/15 A30 RMK A01 T03610151  RH  029%=      5-min Rain = 0
KCR1 112013Z 18008KT 36/15 A30 RMK A01 T03630151  RH  028%=      5-min Rain = 0
KCR1 112014Z 19010KT 37/15 A30 RMK A01 T03650151  RH  028%=      5-min Rain = 0
KCR1 112015Z 19008KT 36/15 A30 RMK A01 T03640149  RH  028%=      5-min Rain = 0
KCR1 112016Z 17008KT 36/15 A30 RMK A01 T03630150  RH  028%=      5-min Rain = 0
KCR1 112017Z 19007KT 36/15 A2999 RMK A01 T03610149  RH  028%=      5-min Rain = 0
KCR1 112018Z 20006KT 36/15 A2999 RMK A01 T03610149  RH  028%=      5-min Rain = 0
KCR1 112019Z 20004KT 36/15 A2999 RMK A01 T03620149  RH  028%=      5-min Rain = 0
KCR1 112020Z 20003KT 36/15 A2999 RMK A01 T03630150  RH  028%=      5-min Rain = 0
KCR1 112021Z 21003KT 37/15 A2999 RMK A01 T03650149  RH  028%=      5-min Rain = 0
KCR1 112022Z 21002KT 37/15 A2999 RMK A01 T03670150  RH  028%=      5-min Rain = 0
KCR1 112023Z 21005KT 37/15 A2999 RMK A01 T03690151  RH  027%=      5-min Rain = 0
KCR1 112024Z 21008KT 37/15 A2999 RMK A01 T03730153  RH  027%=      5-min Rain = 0
KCR1 112025Z 17014KT 38/15 A2999 RMK A01 T03810152  RH  026%=      5-min Rain = 0
KCR1 112026Z 16011KT 39/15 A2999 RMK A01 T03850150  RH  025%=      5-min Rain = 0
KCR1 112027Z 17012G17KT 39/15 A2999 RMK A01 T03860150  RH  025%=      5-min Rain = 0
KCR1 112028Z 18009KT 38/15 A2999 RMK A01 T03830149  RH  025%=      5-min Rain = 0
KCR1 112029Z 18012KT 38/15 A2999 RMK A01 T03820150  RH  025%=      5-min Rain = 0
KCR1 112030Z 19011KT 38/15 A2999 RMK A01 T03800149  RH  026%=      5-min Rain = 0
KCR1 112031Z 19009KT 37/15 A2999 RMK A01 T03740148  RH  026%=      5-min Rain = 0
KCR1 112032Z 21007KT 37/15 A2999 RMK A01 T03720149  RH  027%=      5-min Rain = 0
KCR1 112033Z 22005KT 37/15 A2999 RMK A01 T03700148  RH  027%=      5-min Rain = 0
KCR1 112034Z 22006KT 37/15 A2999 RMK A01 T03680148  RH  027%=      5-min Rain = 0
KCR1 112035Z 19006KT 37/15 A2999 RMK A01 T03670146  RH  027%=      5-min Rain = 0
KCR1 112036Z 17004KT 37/14 A2999 RMK A01 T03660144  RH  027%=      5-min Rain = 0
KCR1 112037Z 21003KT 37/15 A2999 RMK A01 T03650145  RH  027%=      5-min Rain = 0
KCR1 112038Z 16005KT 37/14 A2999 RMK A01 T03660144  RH  027%=      5-min Rain = 0
KCR1 112039Z 15010KT 37/15 A2999 RMK A01 T03680146  RH  027%=      5-min Rain = 0
KCR1 112040Z 16015KT 37/15 A2999 RMK A01 T03700150  RH  027%=      5-min Rain = 0
KCR1 112041Z 16010KT 37/15 A2999 RMK A01 T03710150  RH  027%=      5-min Rain = 0
KCR1 112042Z 15009KT 37/15 A2999 RMK A01 T03700151  RH  027%=      5-min Rain = 0
KCR1 112043Z 14008KT 37/15 A2999 RMK A01 T03730153  RH  027%=      5-min Rain = 0
KCR1 112044Z 15009KT 38/15 A2999 RMK A01 T03760152  RH  027%=      5-min Rain = 0
KCR1 112045Z 15010KT 38/15 A2999 RMK A01 T03790150  RH  026%=      5-min Rain = 0
KCR1 112046Z 15010KT 38/15 A2998 RMK A01 T03800149  RH  026%=      5-min Rain = 0
KCR1 112047Z 17009KT 38/15 A2998 RMK A01 T03770147  RH  026%=      5-min Rain = 0
KCR1 112048Z 18007KT 37/15 A2998 RMK A01 T03730145  RH  026%=      5-min Rain = 0
KCR1 112049Z 20010KT 37/15 A2998 RMK A01 T03710147  RH  026%=      5-min Rain = 0
KCR1 112050Z 20010KT 37/15 A2998 RMK A01 T03730148  RH  026%=      5-min Rain = 0
KCR1 112051Z 18007KT 37/15 A2998 RMK A01 T03710146  RH  026%=      5-min Rain = 0
KCR1 112052Z 16008KT 37/15 A2998 RMK A01 T03690147  RH  027%=      5-min Rain = 0
KCR1 112053Z 14010KT 37/15 A2998 RMK A01 T03700147  RH  027%=      5-min Rain = 0
KCR1 112054Z 16008KT 37/15 A2998 RMK A01 T03700147  RH  026%=      5-min Rain = 0
KCR1 112055Z 15006KT 37/15 A2998 RMK A01 T03700146  RH  027%=      5-min Rain = 0
KCR1 112056Z 16007KT 37/15 A2998 RMK A01 T03700147  RH  027%=      5-min Rain = 0
KCR1 112057Z 18010KT 37/15 A2998 RMK A01 T03710148  RH  027%=      5-min Rain = 0
KCR1 112058Z 19009KT 37/15 A2998 RMK A01 T03730146  RH  026%=      5-min Rain = 0
KCR1 112059Z 19009KT 37/15 A2998 RMK A01 T03730146  RH  026%=      5-min Rain = 0
KCR1 112100Z 19007KT 37/15 A2998 RMK A01 T03720147  RH  026%=      5-min Rain = 0
KCR1 112101Z 18008KT 37/15 A2998 RMK A01 T03720149  RH  027%=      5-min Rain = 0
KCR1 112102Z 18008KT 37/15 A2998 RMK A01 T03730149  RH  026%=      5-min Rain = 0
KCR1 112103Z 18008G14KT 37/15 A2998 RMK A01 T03740149  RH  026%=      5-min Rain = 0
KCR1 112104Z 16012KT 37/15 A2998 RMK A01 T03720148  RH  027%=      5-min Rain = 0
KCR1 112105Z 15011KT 37/15 A2998 RMK A01 T03710148  RH  027%=      5-min Rain = 0
KCR1 112106Z 14010KT 37/15 A2998 RMK A01 T03690148  RH  027%=      5-min Rain = 0
KCR1 112107Z 15009KT 37/15 A2998 RMK A01 T03680148  RH  027%=      5-min Rain = 0
KCR1 112108Z 15006KT 37/15 A2998 RMK A01 T03670147  RH  027%=      5-min Rain = 0
KCR1 112109Z 15007KT 37/15 A2998 RMK A01 T03670148  RH  027%=      5-min Rain = 0
KCR1 112110Z 14005KT 37/15 A2998 RMK A01 T03690149  RH  027%=      5-min Rain = 0
KCR1 112111Z 14006KT 37/15 A2997 RMK A01 T03700149  RH  027%=      5-min Rain = 0
KCR1 112112Z 14006G11KT 37/15 A2997 RMK A01 T03710149  RH  027%=      5-min Rain = 0
KCR1 112113Z 17011KT 37/15 A2997 RMK A01 T03710148  RH  027%=      5-min Rain = 0
KCR1 112114Z 18014KT 37/15 A2997 RMK A01 T03710148  RH  027%=      5-min Rain = 0
KCR1 112115Z 20012KT 37/15 A2997 RMK A01 T03700148  RH  027%=      5-min Rain = 0
KCR1 112116Z 20012KT 37/15 A2997 RMK A01 T03700147  RH  027%=      5-min Rain = 0
KCR1 112117Z 20010KT 37/15 A2997 RMK A01 T03700146  RH  026%=      5-min Rain = 0
KCR1 112118Z 20009KT 37/15 A2997 RMK A01 T03700145  RH  026%=      5-min Rain = 0
KCR1 112119Z 20009KT 37/14 A2997 RMK A01 T03700144  RH  026%=      5-min Rain = 0
KCR1 112120Z 19008KT 37/14 A2997 RMK A01 T03690144  RH  026%=      5-min Rain = 0
KCR1 112121Z 18007KT 37/14 A2997 RMK A01 T03680144  RH  026%=      5-min Rain = 0
KCR1 112122Z 16010KT 37/15 A2997 RMK A01 T03690147  RH  027%=      5-min Rain = 0
KCR1 112123Z 18008KT 37/15 A2997 RMK A01 T03680149  RH  027%=      5-min Rain = 0
KCR1 112124Z 18011KT 37/15 A2997 RMK A01 T03700149  RH  027%=      5-min Rain = 0
KCR1 112125Z 16013KT 37/15 A2997 RMK A01 T03720148  RH  027%=      5-min Rain = 0
KCR1 112126Z 16016KT 37/15 A2997 RMK A01 T03720147  RH  026%=      5-min Rain = 0
KCR1 112127Z 17015KT 37/15 A2997 RMK A01 T03710147  RH  027%=      5-min Rain = 0
KCR1 112128Z 17012KT 37/15 A2997 RMK A01 T03700147  RH  027%=      5-min Rain = 0
KCR1 112129Z 17010KT 37/15 A2997 RMK A01 T03680147  RH  027%=      5-min Rain = 0
KCR1 112130Z 17010KT 37/15 A2997 RMK A01 T03680147  RH  027%=      5-min Rain = 0
KCR1 112131Z 18012KT 37/15 A2996 RMK A01 T03700147  RH  027%=      5-min Rain = 0
KCR1 112132Z 17010KT 37/15 A2996 RMK A01 T03690146  RH  027%=      5-min Rain = 0
KCR1 112133Z 15011KT 37/15 A2996 RMK A01 T03680146  RH  027%=      5-min Rain = 0
KCR1 112134Z 15010KT 37/15 A2996 RMK A01 T03670145  RH  027%=      5-min Rain = 0
KCR1 112135Z 15009KT 37/15 A2996 RMK A01 T03660146  RH  027%=      5-min Rain = 0
KCR1 112136Z 16009KT 37/15 A2996 RMK A01 T03660146  RH  027%=      5-min Rain = 0
KCR1 112137Z 16014KT 37/15 A2996 RMK A01 T03680146  RH  027%=      5-min Rain = 0
KCR1 112138Z 17014KT 37/15 A2996 RMK A01 T03690146  RH  027%=      5-min Rain = 0
KCR1 112139Z 17016KT 37/15 A2996 RMK A01 T03700146  RH  027%=      5-min Rain = 0
KCR1 112140Z 18014KT 37/15 A2996 RMK A01 T03690146  RH  027%=      5-min Rain = 0
KCR1 112141Z 18015KT 37/15 A2996 RMK A01 T03680147  RH  027%=      5-min Rain = 0
KCR1 112142Z 18013KT 37/15 A2996 RMK A01 T03680146  RH  027%=      5-min Rain = 0
KCR1 112143Z 18010KT 37/15 A2996 RMK A01 T03680147  RH  027%=      5-min Rain = 0
KCR1 112144Z 19011KT 37/15 A2996 RMK A01 T03690146  RH  027%=      5-min Rain = 0
KCR1 112145Z 18011KT 37/15 A2996 RMK A01 T03690147  RH  027%=      5-min Rain = 0
KCR1 112146Z 18011KT 37/15 A2996 RMK A01 T03690147  RH  027%=      5-min Rain = 0
KCR1 112147Z 20011KT 37/15 A2996 RMK A01 T03690148  RH  027%=      5-min Rain = 0
KCR1 112148Z 22008KT 37/15 A2996 RMK A01 T03710148  RH  027%=      5-min Rain = 0
KCR1 112149Z 22005KT 37/15 A2996 RMK A01 T03700147  RH  027%=      5-min Rain = 0
KCR1 112150Z 22004KT 37/15 A2996 RMK A01 T03690147  RH  027%=      5-min Rain = 0
KCR1 112151Z 22005KT 37/15 A2996 RMK A01 T03690147  RH  027%=      5-min Rain = 0
KCR1 112152Z 21004KT 37/15 A2996 RMK A01 T03680146  RH  027%=      5-min Rain = 0
KCR1 112153Z 21004KT 37/15 A2996 RMK A01 T03680147  RH  027%=      5-min Rain = 0
KCR1 112154Z 19006KT 37/15 A2996 RMK A01 T03700148  RH  027%=      5-min Rain = 0
KCR1 112155Z 16010KT 37/15 A2996 RMK A01 T03730149  RH  027%=      5-min Rain = 0
KCR1 112156Z 16014KT 38/15 A2995 RMK A01 T03760147  RH  026%=      5-min Rain = 0
KCR1 112157Z 16012KT 38/15 A2995 RMK A01 T03750145  RH  026%=      5-min Rain = 0
KCR1 112158Z 16011KT 37/15 A2995 RMK A01 T03740146  RH  026%=      5-min Rain = 0
KCR1 112159Z 16009KT 37/15 A2995 RMK A01 T03730146  RH  026%=      5-min Rain = 0
KCR1 112200Z 15011KT 37/15 A2995 RMK A01 T03720146  RH  026%=      5-min Rain = 0
KCR1 112201Z 17011KT 37/15 A2995 RMK A01 T03730147  RH  026%=      5-min Rain = 0
KCR1 112202Z 18013KT 38/15 A2995 RMK A01 T03760147  RH  026%=      5-min Rain = 0
KCR1 112203Z 16013KT 38/15 A2995 RMK A01 T03780147  RH  025%=      5-min Rain = 0
KCR1 112204Z 17012KT 38/15 A2995 RMK A01 T03800146  RH  025%=      5-min Rain = 0
KCR1 112205Z 17012KT 38/15 A2995 RMK A01 T03760145  RH  025%=      5-min Rain = 0
KCR1 112206Z 18012KT 37/15 A2995 RMK A01 T03720145  RH  026%=      5-min Rain = 0
KCR1 112207Z 17008KT 37/14 A2995 RMK A01 T03700144  RH  026%=      5-min Rain = 0
KCR1 112208Z 17009KT 37/15 A2995 RMK A01 T03680145  RH  027%=      5-min Rain = 0
KCR1 112209Z 20012KT 37/15 A2995 RMK A01 T03690148  RH  027%=      5-min Rain = 0
KCR1 112210Z 20012KT 37/15 A2995 RMK A01 T03720147  RH  026%=      5-min Rain = 0
KCR1 112211Z 19011KT 37/15 A2995 RMK A01 T03730146  RH  026%=      5-min Rain = 0
KCR1 112212Z 18013KT 37/14 A2995 RMK A01 T03740144  RH  026%=      5-min Rain = 0
KCR1 112213Z 18012KT 38/15 A2995 RMK A01 T03760146  RH  026%=      5-min Rain = 0
KCR1 112214Z 17008KT 38/15 A2995 RMK A01 T03770146  RH  025%=      5-min Rain = 0
KCR1 112215Z 17008KT 38/15 A2995 RMK A01 T03760146  RH  026%=      5-min Rain = 0
KCR1 112216Z 19008KT 38/15 A2995 RMK A01 T03770147  RH  026%=      5-min Rain = 0
KCR1 112217Z 18007KT 38/15 A2995 RMK A01 T03760146  RH  026%=      5-min Rain = 0
KCR1 112218Z 16005KT 37/15 A2995 RMK A01 T03740146  RH  026%=      5-min Rain = 0
KCR1 112219Z 17012KT 37/15 A2995 RMK A01 T03720147  RH  026%=      5-min Rain = 0
KCR1 112220Z 17013KT 37/15 A2995 RMK A01 T03730147  RH  026%=      5-min Rain = 0
KCR1 112221Z 17013KT 37/15 A2995 RMK A01 T03710146  RH  026%=      5-min Rain = 0
KCR1 112222Z 17011KT 37/15 A2995 RMK A01 T03680146  RH  027%=      5-min Rain = 0
KCR1 112223Z 16008KT 37/15 A2995 RMK A01 T03690148  RH  027%=      5-min Rain = 0
KCR1 112224Z 15009KT 37/15 A2995 RMK A01 T03710148  RH  027%=      5-min Rain = 0
KCR1 112225Z 15010KT 37/15 A2995 RMK A01 T03730147  RH  026%=      5-min Rain = 0
KCR1 112226Z 15010KT 38/15 A2995 RMK A01 T03750147  RH  026%=      5-min Rain = 0
KCR1 112227Z 15010KT 38/15 A2995 RMK A01 T03750147  RH  026%=      5-min Rain = 0
KCR1 112228Z 15008KT 37/15 A2995 RMK A01 T03740147  RH  026%=      5-min Rain = 0
KCR1 112229Z 15010KT 37/15 A2995 RMK A01 T03730148  RH  026%=      5-min Rain = 0
KCR1 112230Z 15010KT 37/15 A2995 RMK A01 T03720148  RH  026%=      5-min Rain = 0
KCR1 112231Z 14009KT 37/15 A2994 RMK A01 T03740149  RH  026%=      5-min Rain = 0
KCR1 112232Z 15012KT 38/15 A2994 RMK A01 T03780148  RH  026%=      5-min Rain = 0
KCR1 112233Z 14012G17KT 38/15 A2994 RMK A01 T03770148  RH  026%=      5-min Rain = 0
KCR1 112234Z 15014KT 38/15 A2994 RMK A01 T03750146  RH  026%=      5-min Rain = 0
KCR1 112235Z 17010KT 37/15 A2994 RMK A01 T03710145  RH  026%=      5-min Rain = 0
KCR1 112236Z 16011KT 37/14 A2994 RMK A01 T03680144  RH  026%=      5-min Rain = 0
KCR1 112237Z 14010KT 37/15 A2994 RMK A01 T03660145  RH  027%=      5-min Rain = 0
KCR1 112238Z 15011KT 37/15 A2994 RMK A01 T03650145  RH  027%=      5-min Rain = 0
KCR1 112239Z 15008KT 36/14 A2994 RMK A01 T03630144  RH  027%=      5-min Rain = 0
KCR1 112240Z 14007KT 36/14 A2994 RMK A01 T03620144  RH  027%=      5-min Rain = 0
KCR1 112241Z 14007KT 36/14 A2994 RMK A01 T03620144  RH  027%=      5-min Rain = 0
KCR1 112242Z 14009KT 36/14 A2994 RMK A01 T03620144  RH  027%=      5-min Rain = 0
KCR1 112243Z 15009KT 36/14 A2994 RMK A01 T03630144  RH  027%=      5-min Rain = 0
KCR1 112244Z 18008KT 37/15 A2994 RMK A01 T03660146  RH  027%=      5-min Rain = 0
KCR1 112245Z 16006KT 37/15 A2994 RMK A01 T03700146  RH  027%=      5-min Rain = 0
KCR1 112246Z 17010KT 38/15 A2994 RMK A01 T03750147  RH  026%=      5-min Rain = 0
KCR1 112247Z 15009KT 38/15 A2994 RMK A01 T03770145  RH  025%=      5-min Rain = 0
KCR1 112248Z 15009KT 38/15 A2994 RMK A01 T03780145  RH  025%=      5-min Rain = 0
KCR1 112249Z 14007KT 38/15 A2994 RMK A01 T03770145  RH  025%=      5-min Rain = 0
KCR1 112250Z 15010KT 38/15 A2994 RMK A01 T03770146  RH  025%=      5-min Rain = 0
KCR1 112251Z 17010KT 38/15 A2994 RMK A01 T03800147  RH  025%=      5-min Rain = 0
KCR1 112252Z 19010KT 38/15 A2994 RMK A01 T03790145  RH  025%=      5-min Rain = 0
KCR1 112253Z 19010KT 38/14 A2994 RMK A01 T03770143  RH  025%=      5-min Rain = 0
KCR1 112254Z 19008KT 38/14 A2994 RMK A01 T03750144  RH  026%=      5-min Rain = 0
KCR1 112255Z 18008KT 37/14 A2994 RMK A01 T03720144  RH  026%=      5-min Rain = 0
KCR1 112256Z 18006KT 37/14 A2994 RMK A01 T03700143  RH  026%=      5-min Rain = 0
KCR1 112257Z 19008KT 37/15 A2994 RMK A01 T03680145  RH  026%=      5-min Rain = 0
KCR1 112258Z 16008KT 37/15 A2994 RMK A01 T03680145  RH  026%=      5-min Rain = 0
KCR1 112259Z 16008KT 37/14 A2994 RMK A01 T03680144  RH  026%=      5-min Rain = 0
KCR1 112300Z 16008KT 37/14 A2994 RMK A01 T03680143  RH  026%=      5-min Rain = 0
KCR1 112301Z 16006KT 37/14 A2994 RMK A01 T03680143  RH  026%=      5-min Rain = 0
KCR1 112302Z 16005KT 37/15 A2994 RMK A01 T03720146  RH  026%=      5-min Rain = 0
KCR1 112303Z 20006KT 38/15 A2994 RMK A01 T03770146  RH  025%=      5-min Rain = 0
KCR1 112304Z 20005KT 38/15 A2994 RMK A01 T03780146  RH  025%=      5-min Rain = 0
KCR1 112305Z 18003KT 38/15 A2994 RMK A01 T03770145  RH  025%=      5-min Rain = 0
KCR1 112306Z 17003KT 38/15 A2994 RMK A01 T03770145  RH  025%=      5-min Rain = 0
KCR1 112307Z 19003KT 38/14 A2993 RMK A01 T03770144  RH  025%=      5-min Rain = 0
KCR1 112308Z 15002KT 38/14 A2993 RMK A01 T03760144  RH  025%=      5-min Rain = 0
KCR1 112309Z 14004KT 38/14 A2993 RMK A01 T03760144  RH  025%=      5-min Rain = 0
KCR1 112310Z 15005KT 38/15 A2993 RMK A01 T03750145  RH  026%=      5-min Rain = 0
KCR1 112311Z 17005KT 38/15 A2993 RMK A01 T03760146  RH  026%=      5-min Rain = 0
KCR1 112312Z 18009KT 38/15 A2993 RMK A01 T03770147  RH  026%=      5-min Rain = 0
KCR1 112313Z 17010KT 38/15 A2993 RMK A01 T03780147  RH  026%=      5-min Rain = 0
KCR1 112314Z 16009KT 38/15 A2993 RMK A01 T03810148  RH  025%=      5-min Rain = 0
KCR1 112315Z 15007KT 38/15 A2993 RMK A01 T03810149  RH  025%=      5-min Rain = 0
KCR1 112316Z 18007KT 38/15 A2993 RMK A01 T03800148  RH  025%=      5-min Rain = 0
KCR1 112317Z 19008KT 38/15 A2993 RMK A01 T03770146  RH  025%=      5-min Rain = 0
KCR1 112318Z 19007KT 37/15 A2993 RMK A01 T03720146  RH  026%=      5-min Rain = 0
KCR1 112319Z 19009KT 37/15 A2993 RMK A01 T03710147  RH  026%=      5-min Rain = 0
KCR1 112320Z 19007KT 37/15 A2993 RMK A01 T03700146  RH  027%=      5-min Rain = 0
KCR1 112321Z 19007KT 37/15 A2993 RMK A01 T03680146  RH  027%=      5-min Rain = 0
KCR1 112322Z 20007KT 37/15 A2993 RMK A01 T03670146  RH  027%=      5-min Rain = 0
KCR1 112323Z 20010KT 37/15 A2993 RMK A01 T03680149  RH  027%=      5-min Rain = 0
KCR1 112324Z 21011KT 37/15 A2993 RMK A01 T03710152  RH  027%=      5-min Rain = 0
KCR1 112325Z 21010KT 37/15 A2993 RMK A01 T03730152  RH  027%=      5-min Rain = 0
KCR1 112326Z 19011KT 37/15 A2993 RMK A01 T03740152  RH  027%=      5-min Rain = 0
KCR1 112327Z 18009KT 38/15 A2993 RMK A01 T03770153  RH  027%=      5-min Rain = 0
KCR1 112328Z 18013KT 38/15 A2993 RMK A01 T03790153  RH  026%=      5-min Rain = 0
KCR1 112329Z 18012KT 38/15 A2993 RMK A01 T03800152  RH  026%=      5-min Rain = 0
KCR1 112330Z 19012KT 38/15 A2993 RMK A01 T03790152  RH  026%=      5-min Rain = 0
KCR1 112331Z 19010KT 38/15 A2993 RMK A01 T03770152  RH  026%=      5-min Rain = 0
KCR1 112332Z 20011KT 38/15 A2993 RMK A01 T03770153  RH  027%=      5-min Rain = 0
KCR1 112333Z 20010KT 38/15 A2993 RMK A01 T03780153  RH  027%=      5-min Rain = 0
KCR1 112334Z 20008KT 38/15 A2993 RMK A01 T03750152  RH  027%=      5-min Rain = 0
KCR1 112335Z 19009G14KT 38/15 A2993 RMK A01 T03750154  RH  027%=      5-min Rain = 0
KCR1 112336Z 18012KT 38/15 A2993 RMK A01 T03760154  RH  027%=      5-min Rain = 0
KCR1 112337Z 19011KT 38/16 A2993 RMK A01 T03780155  RH  027%=      5-min Rain = 0
KCR1 112338Z 20012KT 38/16 A2993 RMK A01 T03800156  RH  027%=      5-min Rain = 0
KCR1 112339Z 19013KT 38/16 A2993 RMK A01 T03800156  RH  027%=      5-min Rain = 0
KCR1 112340Z 17014KT 38/16 A2993 RMK A01 T03800155  RH  027%=      5-min Rain = 0
KCR1 112341Z 17011KT 38/16 A2993 RMK A01 T03790155  RH  027%=      5-min Rain = 0
KCR1 112342Z 18011KT 38/15 A2993 RMK A01 T03780154  RH  027%=      5-min Rain = 0
KCR1 112343Z 17012KT 38/15 A2993 RMK A01 T03760154  RH  027%=      5-min Rain = 0
KCR1 112344Z 16011KT 38/15 A2993 RMK A01 T03750154  RH  027%=      5-min Rain = 0
KCR1 112345Z 17011KT 38/16 A2993 RMK A01 T03750155  RH  027%=      5-min Rain = 0
KCR1 112346Z 16011KT 38/16 A2993 RMK A01 T03760155  RH  027%=      5-min Rain = 0
KCR1 112347Z 16010KT 38/16 A2993 RMK A01 T03770155  RH  027%=      5-min Rain = 0
KCR1 112348Z 17009KT 38/15 A2993 RMK A01 T03760154  RH  027%=      5-min Rain = 0
KCR1 112349Z 16010KT 38/15 A2993 RMK A01 T03750153  RH  027%=      5-min Rain = 0
KCR1 112350Z 18009KT 37/15 A2993 RMK A01 T03740154  RH  027%=      5-min Rain = 0
KCR1 112351Z 18012KT 38/16 A2993 RMK A01 T03760156  RH  027%=      5-min Rain = 0
KCR1 112352Z 17013KT 38/16 A2993 RMK A01 T03770155  RH  027%=      5-min Rain = 0
KCR1 112353Z 19009KT 38/15 A2993 RMK A01 T03750154  RH  027%=      5-min Rain = 0
KCR1 112354Z 19011KT 38/16 A2993 RMK A01 T03750156  RH  027%=      5-min Rain = 0
KCR1 112355Z 18012KT 38/16 A2993 RMK A01 T03750157  RH  028%=      5-min Rain = 0
KCR1 112356Z 19009KT 37/16 A2993 RMK A01 T03740156  RH  028%=      5-min Rain = 0
KCR1 112357Z 19011KT 38/16 A2993 RMK A01 T03760158  RH  028%=      5-min Rain = 0
KCR1 112358Z 19014KT 38/16 A2993 RMK A01 T03770156  RH  027%=      5-min Rain = 0
KCR1 112359Z 20012KT 38/16 A2993 RMK A01 T03750155  RH  027%=      5-min Rain = 0
KCR1 120000Z 21011KT 37/16 A2993 RMK A01 T03740155  RH  027%=      5-min Rain = 0
KCR1 120001Z 22010KT 37/16 A2993 RMK A01 T03740155  RH  027%=      5-min Rain = 0
KCR1 120002Z 22010KT 37/15 A2993 RMK A01 T03720154  RH  028%=      5-min Rain = 0
KCR1 120003Z 22009KT 37/15 A2993 RMK A01 T03710154  RH  028%=      5-min Rain = 0
KCR1 120004Z 21009KT 37/15 A2993 RMK A01 T03710154  RH  028%=      5-min Rain = 0
KCR1 120005Z 20008KT 37/16 A2993 RMK A01 T03720155  RH  028%=      5-min Rain = 0
KCR1 120006Z 19009KT 37/16 A2993 RMK A01 T03730155  RH  028%=      5-min Rain = 0
KCR1 120007Z 19010KT 37/16 A2993 RMK A01 T03740156  RH  028%=      5-min Rain = 0
KCR1 120008Z 17009KT 37/16 A2993 RMK A01 T03740155  RH  027%=      5-min Rain = 0
KCR1 120009Z 17012KT 37/15 A2993 RMK A01 T03740154  RH  027%=      5-min Rain = 0
KCR1 120010Z 17012KT 37/15 A2993 RMK A01 T03730152  RH  027%=      5-min Rain = 0
KCR1 120011Z 18009KT 37/15 A2993 RMK A01 T03710152  RH  027%=      5-min Rain = 0
KCR1 120012Z 18007KT 37/15 A2993 RMK A01 T03690152  RH  028%=      5-min Rain = 0
KCR1 120013Z 18008KT 37/15 A2993 RMK A01 T03690153  RH  028%=      5-min Rain = 0
KCR1 120014Z 18009KT 37/15 A2993 RMK A01 T03690153  RH  028%=      5-min Rain = 0
KCR1 120015Z 18008KT 37/15 A2993 RMK A01 T03690154  RH  028%=      5-min Rain = 0
KCR1 120016Z 18007KT 37/15 A2993 RMK A01 T03700154  RH  028%=      5-min Rain = 0
KCR1 120017Z 18008KT 37/16 A2993 RMK A01 T03710155  RH  028%=      5-min Rain = 0
KCR1 120018Z 17008KT 37/15 A2993 RMK A01 T03710154  RH  028%=      5-min Rain = 0
KCR1 120019Z 17007KT 37/16 A2993 RMK A01 T03700155  RH  028%=      5-min Rain = 0
KCR1 120020Z 16007KT 37/16 A2993 RMK A01 T03710155  RH  028%=      5-min Rain = 0
KCR1 120021Z 18008KT 37/16 A2993 RMK A01 T03730156  RH  028%=      5-min Rain = 0
KCR1 120022Z 19010KT 37/16 A2993 RMK A01 T03730155  RH  028%=      5-min Rain = 0
KCR1 120023Z 19009KT 37/15 A2993 RMK A01 T03730153  RH  027%=      5-min Rain = 0
KCR1 120024Z 19007KT 37/15 A2993 RMK A01 T03700153  RH  028%=      5-min Rain = 0
KCR1 120025Z 19009KT 37/15 A2993 RMK A01 T03690153  RH  028%=      5-min Rain = 0
KCR1 120026Z 19009KT 37/15 A2993 RMK A01 T03680153  RH  028%=      5-min Rain = 0
KCR1 120027Z 20008KT 37/15 A2993 RMK A01 T03680154  RH  028%=      5-min Rain = 0
KCR1 120028Z 18008KT 37/15 A2993 RMK A01 T03670154  RH  028%=      5-min Rain = 0
KCR1 120029Z 19009KT 37/15 A2993 RMK A01 T03680153  RH  028%=      5-min Rain = 0
KCR1 120030Z 19007KT 37/15 A2993 RMK A01 T03680153  RH  028%=      5-min Rain = 0
KCR1 120031Z 19006KT 37/15 A2993 RMK A01 T03670154  RH  028%=      5-min Rain = 0
KCR1 120032Z 20008KT 37/16 A2993 RMK A01 T03680155  RH  028%=      5-min Rain = 0
KCR1 120033Z 20010KT 37/16 A2993 RMK A01 T03680155  RH  028%=      5-min Rain = 0
KCR1 120034Z 20011KT 37/16 A2993 RMK A01 T03690155  RH  028%=      5-min Rain = 0
KCR1 120035Z 20011KT 37/15 A2993 RMK A01 T03680153  RH  028%=      5-min Rain = 0
KCR1 120036Z 19009KT 37/15 A2993 RMK A01 T03670153  RH  028%=      5-min Rain = 0
KCR1 120037Z 19009KT 37/15 A2993 RMK A01 T03670153  RH  028%=      5-min Rain = 0
KCR1 120038Z 18007KT 37/15 A2993 RMK A01 T03670152  RH  028%=      5-min Rain = 0
KCR1 120039Z 17009KT 37/15 A2993 RMK A01 T03670153  RH  028%=      5-min Rain = 0
KCR1 120040Z 17008KT 37/15 A2993 RMK A01 T03660152  RH  028%=      5-min Rain = 0
KCR1 120041Z 18008KT 37/15 A2993 RMK A01 T03660152  RH  028%=      5-min Rain = 0
KCR1 120042Z 17007KT 37/15 A2993 RMK A01 T03670152  RH  028%=      5-min Rain = 0
KCR1 120043Z 17006KT 37/15 A2993 RMK A01 T03660152  RH  028%=      5-min Rain = 0
KCR1 120044Z 18009KT 37/15 A2994 RMK A01 T03670153  RH  028%=      5-min Rain = 0
KCR1 120045Z 18008KT 37/15 A2994 RMK A01 T03660154  RH  028%=      5-min Rain = 0
KCR1 120046Z 17007KT 37/15 A2994 RMK A01 T03660154  RH  028%=      5-min Rain = 0
KCR1 120047Z 18008KT 37/15 A2994 RMK A01 T03660154  RH  029%=      5-min Rain = 0
KCR1 120048Z 18009KT 37/15 A2994 RMK A01 T03650153  RH  029%=      5-min Rain = 0
KCR1 120049Z 18008KT 37/15 A2994 RMK A01 T03650153  RH  029%=      5-min Rain = 0
KCR1 120050Z 19009KT 37/15 A2994 RMK A01 T03650153  RH  029%=      5-min Rain = 0
KCR1 120051Z 19009KT 37/15 A2994 RMK A01 T03650152  RH  028%=      5-min Rain = 0
KCR1 120052Z 18007KT 37/15 A2994 RMK A01 T03650152  RH  028%=      5-min Rain = 0
KCR1 120053Z 18007KT 37/15 A2994 RMK A01 T03650152  RH  028%=      5-min Rain = 0
KCR1 120054Z 18007KT 37/15 A2994 RMK A01 T03650152  RH  028%=      5-min Rain = 0
KCR1 120055Z 18005KT 36/15 A2994 RMK A01 T03640152  RH  028%=      5-min Rain = 0
KCR1 120056Z 18007KT 37/15 A2994 RMK A01 T03650153  RH  028%=      5-min Rain = 0
KCR1 120057Z 18009KT 37/15 A2994 RMK A01 T03650154  RH  029%=      5-min Rain = 0
KCR1 120058Z 19009KT 36/15 A2994 RMK A01 T03640154  RH  029%=      5-min Rain = 0
KCR1 120059Z 18010KT 36/16 A2994 RMK A01 T03630155  RH  029%=      5-min Rain = 0
KCR1 120100Z 18009KT 36/16 A2994 RMK A01 T03630155  RH  029%=      5-min Rain = 0
KCR1 120101Z 18008KT 36/16 A2994 RMK A01 T03630156  RH  029%=      5-min Rain = 0
KCR1 120102Z 18007KT 36/16 A2994 RMK A01 T03630156  RH  029%=      5-min Rain = 0
KCR1 120103Z 18009KT 36/16 A2994 RMK A01 T03630157  RH  029%=      5-min Rain = 0
KCR1 120104Z 18008KT 36/16 A2994 RMK A01 T03630156  RH  029%=      5-min Rain = 0
KCR1 120105Z 18008KT 36/16 A2994 RMK A01 T03630155  RH  029%=      5-min Rain = 0
KCR1 120106Z 17008KT 36/16 A2994 RMK A01 T03630155  RH  029%=      5-min Rain = 0
KCR1 120107Z 17009KT 36/16 A2994 RMK A01 T03630156  RH  029%=      5-min Rain = 0
KCR1 120108Z 17008KT 36/16 A2994 RMK A01 T03620155  RH  029%=      5-min Rain = 0
KCR1 120109Z 18008KT 36/16 A2994 RMK A01 T03620155  RH  029%=      5-min Rain = 0
KCR1 120110Z 18006KT 36/16 A2994 RMK A01 T03620155  RH  029%=      5-min Rain = 0
KCR1 120111Z 18008KT 36/16 A2994 RMK A01 T03610156  RH  030%=      5-min Rain = 0
KCR1 120112Z 18008KT 36/16 A2994 RMK A01 T03610156  RH  030%=      5-min Rain = 0
KCR1 120113Z 18008KT 36/16 A2994 RMK A01 T03600156  RH  030%=      5-min Rain = 0
KCR1 120114Z 18009KT 36/16 A2994 RMK A01 T03590155  RH  030%=      5-min Rain = 0
KCR1 120115Z 18008KT 36/16 A2994 RMK A01 T03590155  RH  030%=      5-min Rain = 0
KCR1 120116Z 18008KT 36/16 A2994 RMK A01 T03590155  RH  030%=      5-min Rain = 0
KCR1 120117Z 18007KT 36/16 A2994 RMK A01 T03580155  RH  030%=      5-min Rain = 0
KCR1 120118Z 18007KT 36/16 A2994 RMK A01 T03580156  RH  030%=      5-min Rain = 0
KCR1 120119Z 18006KT 36/16 A2994 RMK A01 T03570156  RH  030%=      5-min Rain = 0
KCR1 120120Z 18006KT 36/16 A2994 RMK A01 T03570157  RH  030%=      5-min Rain = 0
KCR1 120121Z 18005KT 36/16 A2994 RMK A01 T03570156  RH  030%=      5-min Rain = 0
KCR1 120122Z 19005KT 36/16 A2994 RMK A01 T03560157  RH  031%=      5-min Rain = 0
KCR1 120123Z 19005KT 36/16 A2994 RMK A01 T03560157  RH  031%=      5-min Rain = 0
KCR1 120124Z 19006KT 36/16 A2994 RMK A01 T03560157  RH  031%=      5-min Rain = 0
KCR1 120125Z 18006KT 36/16 A2994 RMK A01 T03560156  RH  031%=      5-min Rain = 0
KCR1 120126Z 19006KT 36/16 A2995 RMK A01 T03560157  RH  031%=      5-min Rain = 0
KCR1 120127Z 18005KT 36/16 A2995 RMK A01 T03550156  RH  031%=      5-min Rain = 0
KCR1 120128Z 18005KT 36/16 A2995 RMK A01 T03550157  RH  031%=      5-min Rain = 0
KCR1 120129Z 18005KT 35/16 A2995 RMK A01 T03540158  RH  031%=      5-min Rain = 0
KCR1 120130Z 17005KT 35/16 A2995 RMK A01 T03530158  RH  031%=      5-min Rain = 0
KCR1 120131Z 17005KT 35/16 A2995 RMK A01 T03520158  RH  031%=      5-min Rain = 0
KCR1 120132Z 17005KT 35/16 A2995 RMK A01 T03520158  RH  032%=      5-min Rain = 0
KCR1 120133Z 17007KT 35/16 A2995 RMK A01 T03510157  RH  031%=      5-min Rain = 0
KCR1 120134Z 17007KT 35/16 A2995 RMK A01 T03510156  RH  031%=      5-min Rain = 0
KCR1 120135Z 17006KT 35/16 A2995 RMK A01 T03510155  RH  031%=      5-min Rain = 0
KCR1 120136Z 16007KT 35/16 A2995 RMK A01 T03520156  RH  031%=      5-min Rain = 0
KCR1 120137Z 17006KT 35/16 A2995 RMK A01 T03520155  RH  031%=      5-min Rain = 0
KCR1 120138Z 17007KT 35/16 A2995 RMK A01 T03520155  RH  031%=      5-min Rain = 0
KCR1 120139Z 17006KT 35/16 A2995 RMK A01 T03510155  RH  031%=      5-min Rain = 0
KCR1 120140Z 17006KT 35/16 A2995 RMK A01 T03510155  RH  031%=      5-min Rain = 0
KCR1 120141Z 17006KT 35/16 A2995 RMK A01 T03500155  RH  031%=      5-min Rain = 0
KCR1 120142Z 17007KT 35/16 A2995 RMK A01 T03490155  RH  031%=      5-min Rain = 0
KCR1 120143Z 17007KT 35/16 A2995 RMK A01 T03490155  RH  031%=      5-min Rain = 0
KCR1 120144Z 17007KT 35/16 A2995 RMK A01 T03490155  RH  031%=      5-min Rain = 0
KCR1 120145Z 16006KT 35/16 A2995 RMK A01 T03490155  RH  031%=      5-min Rain = 0
KCR1 120146Z 16007KT 35/16 A2995 RMK A01 T03490155  RH  031%=      5-min Rain = 0
KCR1 120147Z 17007KT 35/16 A2995 RMK A01 T03480155  RH  032%=      5-min Rain = 0
KCR1 120148Z 16007KT 35/16 A2995 RMK A01 T03470155  RH  032%=      5-min Rain = 0
KCR1 120149Z 16007KT 35/16 A2995 RMK A01 T03470155  RH  032%=      5-min Rain = 0
KCR1 120150Z 17006KT 35/16 A2995 RMK A01 T03470155  RH  032%=      5-min Rain = 0
KCR1 120151Z 16007KT 35/16 A2995 RMK A01 T03470155  RH  032%=      5-min Rain = 0
KCR1 120152Z 16007KT 35/15 A2995 RMK A01 T03460154  RH  032%=      5-min Rain = 0
KCR1 120153Z 16007KT 35/15 A2996 RMK A01 T03460154  RH  032%=      5-min Rain = 0
KCR1 120154Z 16006KT 35/15 A2996 RMK A01 T03450154  RH  032%=      5-min Rain = 0
KCR1 120155Z 16007KT 35/15 A2996 RMK A01 T03450154  RH  032%=      5-min Rain = 0
KCR1 120156Z 16006KT 35/15 A2996 RMK A01 T03450154  RH  032%=      5-min Rain = 0
KCR1 120157Z 16006KT 35/15 A2996 RMK A01 T03450154  RH  032%=      5-min Rain = 0
KCR1 120158Z 15007KT 34/16 A2996 RMK A01 T03440155  RH  032%=      5-min Rain = 0
KCR1 120159Z 15006KT 34/16 A2996 RMK A01 T03440155  RH  032%=      5-min Rain = 0
KCR1 120200Z 14006KT 34/16 A2996 RMK A01 T03430155  RH  032%=      5-min Rain = 0
KCR1 120201Z 14005KT 34/16 A2996 RMK A01 T03420155  RH  033%=      5-min Rain = 0
KCR1 120202Z 14005KT 34/16 A2996 RMK A01 T03420155  RH  033%=      5-min Rain = 0
KCR1 120203Z 13004KT 34/16 A2996 RMK A01 T03420155  RH  033%=      5-min Rain = 0
KCR1 120204Z 13005KT 34/16 A2996 RMK A01 T03410155  RH  033%=      5-min Rain = 0
KCR1 120205Z 13006KT 34/16 A2996 RMK A01 T03410155  RH  033%=      5-min Rain = 0
KCR1 120206Z 13006KT 34/16 A2996 RMK A01 T03400157  RH  033%=      5-min Rain = 0
KCR1 120207Z 13007KT 34/16 A2996 RMK A01 T03400158  RH  034%=      5-min Rain = 0
KCR1 120208Z 14008KT 34/16 A2996 RMK A01 T03400158  RH  034%=      5-min Rain = 0
KCR1 120209Z 14008KT 34/16 A2996 RMK A01 T03410158  RH  034%=      5-min Rain = 0
KCR1 120210Z 13007KT 34/16 A2996 RMK A01 T03420158  RH  033%=      5-min Rain = 0
KCR1 120211Z 14008KT 34/16 A2996 RMK A01 T03420158  RH  033%=      5-min Rain = 0
KCR1 120212Z 14009KT 34/16 A2996 RMK A01 T03410158  RH  034%=      5-min Rain = 0
KCR1 120213Z 14007KT 34/16 A2996 RMK A01 T03410158  RH  034%=      5-min Rain = 0
KCR1 120214Z 14007KT 34/16 A2996 RMK A01 T03410158  RH  034%=      5-min Rain = 0
KCR1 120215Z 14007KT 34/16 A2996 RMK A01 T03410159  RH  034%=      5-min Rain = 0
KCR1 120216Z 14007KT 34/16 A2996 RMK A01 T03400159  RH  034%=      5-min Rain = 0
KCR1 120217Z 14007KT 34/16 A2996 RMK A01 T03400159  RH  034%=      5-min Rain = 0
KCR1 120218Z 14006KT 34/16 A2996 RMK A01 T03390159  RH  034%=      5-min Rain = 0
KCR1 120219Z 13007KT 34/16 A2996 RMK A01 T03390159  RH  034%=      5-min Rain = 0
KCR1 120220Z 13007KT 34/16 A2996 RMK A01 T03380159  RH  034%=      5-min Rain = 0
KCR1 120221Z 14007KT 34/16 A2996 RMK A01 T03380160  RH  034%=      5-min Rain = 0
KCR1 120222Z 13007KT 34/16 A2997 RMK A01 T03380160  RH  034%=      5-min Rain = 0
KCR1 120223Z 13007KT 34/16 A2997 RMK A01 T03380160  RH  034%=      5-min Rain = 0
KCR1 120224Z 13008KT 34/16 A2997 RMK A01 T03380160  RH  034%=      5-min Rain = 0
KCR1 120225Z 13009KT 34/16 A2997 RMK A01 T03380160  RH  034%=      5-min Rain = 0
KCR1 120226Z 13009KT 34/16 A2997 RMK A01 T03390160  RH  034%=      5-min Rain = 0
KCR1 120227Z 13008KT 34/16 A2997 RMK A01 T03390160  RH  034%=      5-min Rain = 0
KCR1 120228Z 13007KT 34/16 A2997 RMK A01 T03390161  RH  034%=      5-min Rain = 0
KCR1 120229Z 14007KT 34/16 A2997 RMK A01 T03390161  RH  035%=      5-min Rain = 0
KCR1 120230Z 14008KT 34/16 A2997 RMK A01 T03380161  RH  035%=      5-min Rain = 0
KCR1 120231Z 13007KT 34/16 A2997 RMK A01 T03380161  RH  035%=      5-min Rain = 0
KCR1 120232Z 13007KT 34/16 A2997 RMK A01 T03380162  RH  035%=      5-min Rain = 0
KCR1 120233Z 13006KT 34/16 A2997 RMK A01 T03370162  RH  035%=      5-min Rain = 0
KCR1 120234Z 14006KT 34/16 A2997 RMK A01 T03370162  RH  035%=      5-min Rain = 0
KCR1 120235Z 14007KT 34/16 A2997 RMK A01 T03360162  RH  035%=      5-min Rain = 0
KCR1 120236Z 13008KT 34/16 A2997 RMK A01 T03360161  RH  035%=      5-min Rain = 0
KCR1 120237Z 13007KT 34/16 A2997 RMK A01 T03360161  RH  035%=      5-min Rain = 0
KCR1 120238Z 13010KT 34/16 A2997 RMK A01 T03360161  RH  035%=      5-min Rain = 0
KCR1 120239Z 14010KT 34/16 A2997 RMK A01 T03360161  RH  035%=      5-min Rain = 0
KCR1 120240Z 13008KT 34/16 A2997 RMK A01 T03370161  RH  035%=      5-min Rain = 0
KCR1 120241Z 13009KT 34/16 A2998 RMK A01 T03380161  RH  035%=      5-min Rain = 0
KCR1 120242Z 14010KT 34/16 A2998 RMK A01 T03370163  RH  035%=      5-min Rain = 0
KCR1 120243Z 14011KT 34/16 A2998 RMK A01 T03360164  RH  036%=      5-min Rain = 0
KCR1 120244Z 14011KT 34/17 A2998 RMK A01 T03360165  RH  036%=      5-min Rain = 0
KCR1 120245Z 14008KT 34/17 A2998 RMK A01 T03350166  RH  036%=      5-min Rain = 0
KCR1 120246Z 14010KT 33/17 A2998 RMK A01 T03340166  RH  037%=      5-min Rain = 0
KCR1 120247Z 13009KT 33/17 A2998 RMK A01 T03340165  RH  036%=      5-min Rain = 0
KCR1 120248Z 13010KT 33/16 A2998 RMK A01 T03340164  RH  036%=      5-min Rain = 0
KCR1 120249Z 13008KT 33/16 A2998 RMK A01 T03330163  RH  036%=      5-min Rain = 0
KCR1 120250Z 14010KT 33/16 A2998 RMK A01 T03330164  RH  036%=      5-min Rain = 0
KCR1 120251Z 14010KT 33/16 A2998 RMK A01 T03330164  RH  037%=      5-min Rain = 0
KCR1 120252Z 14012KT 33/17 A2998 RMK A01 T03330166  RH  037%=      5-min Rain = 0
KCR1 120253Z 15011KT 33/17 A2998 RMK A01 T03320167  RH  037%=      5-min Rain = 0
KCR1 120254Z 15011KT 33/17 A2998 RMK A01 T03320169  RH  038%=      5-min Rain = 0
KCR1 120255Z 15013KT 33/17 A2998 RMK A01 T03320170  RH  038%=      5-min Rain = 0
KCR1 120256Z 15013KT 33/17 A2999 RMK A01 T03320171  RH  038%=      5-min Rain = 0
KCR1 120257Z 15011KT 33/17 A2999 RMK A01 T03320171  RH  038%=      5-min Rain = 0
KCR1 120258Z 15013KT 33/17 A2999 RMK A01 T03320171  RH  038%=      5-min Rain = 0
KCR1 120259Z 15012KT 33/17 A2999 RMK A01 T03320171  RH  038%=      5-min Rain = 0
KCR1 120300Z 15012KT 33/17 A2999 RMK A01 T03310171  RH  038%=      5-min Rain = 0
KCR1 120301Z 14013KT 33/17 A2999 RMK A01 T03310172  RH  039%=      5-min Rain = 0
KCR1 120302Z 15011KT 33/17 A2999 RMK A01 T03310172  RH  039%=      5-min Rain = 0
KCR1 120303Z 15013KT 33/17 A2999 RMK A01 T03310172  RH  039%=      5-min Rain = 0
KCR1 120304Z 15013KT 33/17 A2999 RMK A01 T03300172  RH  039%=      5-min Rain = 0
KCR1 120305Z 15013KT 33/17 A2999 RMK A01 T03300173  RH  039%=      5-min Rain = 0
KCR1 120306Z 15013KT 33/17 A2999 RMK A01 T03300173  RH  039%=      5-min Rain = 0
KCR1 120307Z 15013KT 33/17 A2999 RMK A01 T03300173  RH  039%=      5-min Rain = 0
KCR1 120308Z 15012KT 33/17 A2999 RMK A01 T03300172  RH  039%=      5-min Rain = 0
KCR1 120309Z 15013KT 33/17 A2999 RMK A01 T03290173  RH  039%=      5-min Rain = 0
KCR1 120310Z 15013KT 33/17 A2999 RMK A01 T03290172  RH  039%=      5-min Rain = 0
KCR1 120311Z 16014KT 33/17 A2999 RMK A01 T03290173  RH  039%=      5-min Rain = 0
KCR1 120312Z 15013KT 33/17 A2999 RMK A01 T03280172  RH  039%=      5-min Rain = 0
KCR1 120313Z 16013KT 33/17 A2999 RMK A01 T03290173  RH  039%=      5-min Rain = 0
KCR1 120314Z 16011KT 33/17 A2999 RMK A01 T03280173  RH  040%=      5-min Rain = 0
KCR1 120315Z 16011KT 33/17 A30 RMK A01 T03280173  RH  040%=      5-min Rain = 0
KCR1 120316Z 16012KT 33/17 A30 RMK A01 T03270173  RH  040%=      5-min Rain = 0
KCR1 120317Z 16014KT 33/17 A30 RMK A01 T03270173  RH  040%=      5-min Rain = 0
KCR1 120318Z 16012KT 33/17 A30 RMK A01 T03260173  RH  040%=      5-min Rain = 0
KCR1 120319Z 16012KT 33/17 A30 RMK A01 T03260173  RH  040%=      5-min Rain = 0
KCR1 120320Z 16012KT 33/17 A30 RMK A01 T03260173  RH  040%=      5-min Rain = 0
KCR1 120321Z 16010KT 33/17 A30 RMK A01 T03250173  RH  040%=      5-min Rain = 0
KCR1 120322Z 16012KT 33/17 A30 RMK A01 T03250173  RH  040%=      5-min Rain = 0
KCR1 120323Z 15011KT 33/17 A30 RMK A01 T03250173  RH  040%=      5-min Rain = 0
KCR1 120324Z 16012G17KT 33/17 A30 RMK A01 T03250174  RH  041%=      5-min Rain = 0
KCR1 120325Z 15013KT 32/17 A30 RMK A01 T03240174  RH  041%=      5-min Rain = 0
KCR1 120326Z 16013KT 32/18 A30 RMK A01 T03240175  RH  041%=      5-min Rain = 0
KCR1 120327Z 16014KT 32/18 A30 RMK A01 T03240176  RH  041%=      5-min Rain = 0
KCR1 120328Z 16014KT 32/18 A30 RMK A01 T03240176  RH  041%=      5-min Rain = 0
KCR1 120329Z 16013KT 32/18 A30 RMK A01 T03230177  RH  042%=      5-min Rain = 0
KCR1 120330Z 16014KT 32/18 A30 RMK A01 T03230177  RH  042%=      5-min Rain = 0
KCR1 120331Z 16013KT 32/18 A30 RMK A01 T03230177  RH  042%=      5-min Rain = 0
KCR1 120332Z 16014KT 32/18 A30 RMK A01 T03230177  RH  042%=      5-min Rain = 0
KCR1 120333Z 16014KT 32/18 A30 RMK A01 T03220178  RH  042%=      5-min Rain = 0
KCR1 120334Z 16012KT 32/18 A30 RMK A01 T03220178  RH  042%=      5-min Rain = 0
KCR1 120335Z 16013KT 32/18 A3001 RMK A01 T03230178  RH  042%=      5-min Rain = 0
KCR1 120336Z 16016KT 32/18 A30 RMK A01 T03220178  RH  042%=      5-min Rain = 0
KCR1 120337Z 16013KT 32/18 A3001 RMK A01 T03220178  RH  042%=      5-min Rain = 0
KCR1 120338Z 17014KT 32/18 A3001 RMK A01 T03220178  RH  042%=      5-min Rain = 0
KCR1 120339Z 16012KT 32/18 A3001 RMK A01 T03220178  RH  042%=      5-min Rain = 0
KCR1 120340Z 16014KT 32/18 A3001 RMK A01 T03220178  RH  042%=      5-min Rain = 0
KCR1 120341Z 16013KT 32/18 A3001 RMK A01 T03220178  RH  043%=      5-min Rain = 0
KCR1 120342Z 16012KT 32/18 A3001 RMK A01 T03210178  RH  043%=      5-min Rain = 0
KCR1 120343Z 16012KT 32/18 A3001 RMK A01 T03210178  RH  043%=      5-min Rain = 0
KCR1 120344Z 17013KT 32/18 A3001 RMK A01 T03200178  RH  043%=      5-min Rain = 0
KCR1 120345Z 16015KT 32/18 A3001 RMK A01 T03200178  RH  043%=      5-min Rain = 0
KCR1 120346Z 17013KT 32/18 A3001 RMK A01 T03200178  RH  043%=      5-min Rain = 0
KCR1 120347Z 16011KT 32/18 A3001 RMK A01 T03200178  RH  043%=      5-min Rain = 0
KCR1 120348Z 17011KT 32/18 A3001 RMK A01 T03190178  RH  043%=      5-min Rain = 0
KCR1 120349Z 17012KT 32/18 A3001 RMK A01 T03190178  RH  043%=      5-min Rain = 0
KCR1 120350Z 16012KT 32/18 A3001 RMK A01 T03180177  RH  043%=      5-min Rain = 0
KCR1 120351Z 16013KT 32/18 A3001 RMK A01 T03180178  RH  043%=      5-min Rain = 0
KCR1 120352Z 16011KT 32/18 A3001 RMK A01 T03180177  RH  043%=      5-min Rain = 0
KCR1 120353Z 16011KT 32/18 A3001 RMK A01 T03180178  RH  043%=      5-min Rain = 0
KCR1 120354Z 16011KT 32/18 A3001 RMK A01 T03180177  RH  043%=      5-min Rain = 0
KCR1 120355Z 16011KT 32/18 A3001 RMK A01 T03170177  RH  043%=      5-min Rain = 0
KCR1 120356Z 16012KT 32/18 A3001 RMK A01 T03170177  RH  043%=      5-min Rain = 0
KCR1 120357Z 16011KT 32/18 A3001 RMK A01 T03170178  RH  043%=      5-min Rain = 0
KCR1 120358Z 16010KT 32/18 A3001 RMK A01 T03170177  RH  043%=      5-min Rain = 0
KCR1 120359Z 16009KT 32/18 A3001 RMK A01 T03160177  RH  043%=      5-min Rain = 0
KCR1 120400Z 16010KT 32/18 A3001 RMK A01 T03150177  RH  044%=      5-min Rain = 0
KCR1 120401Z 16010KT 32/18 A3001 RMK A01 T03150177  RH  044%=      5-min Rain = 0
KCR1 120402Z 16009KT 32/18 A3001 RMK A01 T03150177  RH  044%=      5-min Rain = 0
KCR1 120403Z 16009KT 32/18 A3001 RMK A01 T03150177  RH  044%=      5-min Rain = 0
KCR1 120404Z 16009KT 31/18 A3001 RMK A01 T03140177  RH  044%=      5-min Rain = 0
KCR1 120405Z 16009KT 31/18 A3001 RMK A01 T03140177  RH  044%=      5-min Rain = 0
KCR1 120406Z 16009KT 31/18 A3001 RMK A01 T03130177  RH  044%=      5-min Rain = 0
KCR1 120407Z 16009KT 31/18 A3001 RMK A01 T03130177  RH  044%=      5-min Rain = 0
KCR1 120408Z 16010KT 31/18 A3001 RMK A01 T03130177  RH  044%=      5-min Rain = 0
KCR1 120409Z 16009KT 31/18 A3001 RMK A01 T03130177  RH  044%=      5-min Rain = 0
KCR1 120410Z 16011KT 31/18 A3001 RMK A01 T03130177  RH  044%=      5-min Rain = 0
KCR1 120411Z 16011KT 31/18 A3001 RMK A01 T03130177  RH  044%=      5-min Rain = 0
KCR1 120412Z 16009KT 31/18 A3001 RMK A01 T03130177  RH  044%=      5-min Rain = 0
KCR1 120413Z 16012KT 31/18 A3001 RMK A01 T03130177  RH  044%=      5-min Rain = 0
KCR1 120414Z 16012KT 31/18 A3001 RMK A01 T03130177  RH  044%=      5-min Rain = 0
KCR1 120415Z 16012KT 31/18 A3001 RMK A01 T03140177  RH  044%=      5-min Rain = 0
KCR1 120416Z 16010KT 31/18 A3001 RMK A01 T03140177  RH  044%=      5-min Rain = 0
KCR1 120417Z 16009KT 31/18 A3001 RMK A01 T03140177  RH  044%=      5-min Rain = 0
KCR1 120418Z 17010KT 31/18 A3001 RMK A01 T03130177  RH  044%=      5-min Rain = 0
KCR1 120419Z 17011KT 31/18 A3001 RMK A01 T03130177  RH  044%=      5-min Rain = 0
KCR1 120420Z 16010KT 31/18 A3001 RMK A01 T03120177  RH  044%=      5-min Rain = 0
KCR1 120421Z 17010KT 31/18 A3001 RMK A01 T03120178  RH  045%=      5-min Rain = 0
KCR1 120422Z 16011KT 31/18 A3001 RMK A01 T03120178  RH  045%=      5-min Rain = 0
KCR1 120423Z 17009KT 31/18 A3001 RMK A01 T03120178  RH  045%=      5-min Rain = 0
KCR1 120424Z 16010KT 31/18 A3001 RMK A01 T03110177  RH  045%=      5-min Rain = 0
KCR1 120425Z 17010KT 31/18 A3001 RMK A01 T03110178  RH  045%=      5-min Rain = 0
KCR1 120426Z 16009KT 31/18 A3001 RMK A01 T03120178  RH  045%=      5-min Rain = 0
KCR1 120427Z 17010KT 31/18 A3001 RMK A01 T03110178  RH  045%=      5-min Rain = 0
KCR1 120428Z 16009KT 31/18 A3001 RMK A01 T03110178  RH  045%=      5-min Rain = 0
KCR1 120429Z 16009KT 31/18 A3001 RMK A01 T03100178  RH  045%=      5-min Rain = 0
KCR1 120430Z 16009KT 31/18 A3001 RMK A01 T03100178  RH  045%=      5-min Rain = 0
KCR1 120431Z 16009KT 31/18 A3001 RMK A01 T03100178  RH  045%=      5-min Rain = 0
KCR1 120432Z 16008KT 31/18 A3001 RMK A01 T03100179  RH  045%=      5-min Rain = 0
KCR1 120433Z 16010KT 31/18 A3001 RMK A01 T03100178  RH  045%=      5-min Rain = 0
KCR1 120434Z 16010KT 31/18 A3001 RMK A01 T03100179  RH  046%=      5-min Rain = 0
KCR1 120435Z 16009KT 31/18 A3001 RMK A01 T03100179  RH  046%=      5-min Rain = 0
KCR1 120436Z 16009KT 31/18 A3001 RMK A01 T03100179  RH  045%=      5-min Rain = 0
KCR1 120437Z 16008KT 31/18 A3001 RMK A01 T03100179  RH  046%=      5-min Rain = 0
KCR1 120438Z 16009KT 31/18 A3001 RMK A01 T03090178  RH  046%=      5-min Rain = 0
KCR1 120439Z 16007KT 31/18 A3001 RMK A01 T03080178  RH  046%=      5-min Rain = 0
KCR1 120440Z 16008KT 31/18 A3001 RMK A01 T03070179  RH  046%=      5-min Rain = 0
KCR1 120441Z 16009KT 31/18 A3001 RMK A01 T03070179  RH  046%=      5-min Rain = 0
KCR1 120442Z 16008KT 31/18 A3001 RMK A01 T03070179  RH  046%=      5-min Rain = 0
KCR1 120443Z 16008KT 31/18 A3001 RMK A01 T03070179  RH  046%=      5-min Rain = 0
KCR1 120444Z 17008KT 31/18 A3001 RMK A01 T03070179  RH  046%=      5-min Rain = 0
KCR1 120445Z 16008KT 31/18 A3001 RMK A01 T03060179  RH  047%=      5-min Rain = 0
KCR1 120446Z 17008KT 31/18 A3001 RMK A01 T03060179  RH  047%=      5-min Rain = 0
KCR1 120447Z 17008KT 31/18 A3001 RMK A01 T03060180  RH  047%=      5-min Rain = 0
KCR1 120448Z 16009KT 31/18 A3001 RMK A01 T03060179  RH  047%=      5-min Rain = 0
KCR1 120449Z 16008KT 31/18 A3001 RMK A01 T03050179  RH  047%=      5-min Rain = 0
KCR1 120450Z 16008KT 31/18 A3001 RMK A01 T03050179  RH  047%=      5-min Rain = 0
KCR1 120451Z 16008KT 31/18 A3001 RMK A01 T03050179  RH  047%=      5-min Rain = 0
KCR1 120452Z 16009KT 31/18 A3001 RMK A01 T03050180  RH  047%=      5-min Rain = 0
KCR1 120453Z 16009KT 31/18 A3001 RMK A01 T03050180  RH  047%=      5-min Rain = 0
KCR1 120454Z 16008KT 31/18 A3001 RMK A01 T03050179  RH  047%=      5-min Rain = 0
KCR1 120455Z 16008KT 31/18 A3001 RMK A01 T03050179  RH  047%=      5-min Rain = 0
KCR1 120456Z 16008KT 31/18 A3001 RMK A01 T03050180  RH  047%=      5-min Rain = 0
KCR1 120457Z 16008KT 30/18 A3001 RMK A01 T03040179  RH  047%=      5-min Rain = 0
KCR1 120458Z 16007KT 30/18 A3001 RMK A01 T03040179  RH  047%=      5-min Rain = 0
KCR1 120459Z 16008KT 30/18 A3001 RMK A01 T03030179  RH  048%=      5-min Rain = 0

Page generated in 0.0346 seconds.